Wetterdaten: Donnerstag, 10.07.2014
Datum Zeit Temp. Aussen +5cm Feuchte Auss Luftdruck Regen Sonnenschein Regendauer UV Solar Windben
10.07.2014 00:00 18,1 C 16,7 C 100 % 1005,4 hPa 0,0 l/m 0 min 0 min 0,0 UV-I 0 W/m 10,5 km/h (2 Bft)
10.07.2014 00:02 18,1 C 16,7 C 100 % 1005,5 hPa 0,0 l/m 0 min 0 min 0,0 UV-I 0 W/m 10,5 km/h (2 Bft)
10.07.2014 00:05 18,1 C 16,7 C 100 % 1005,5 hPa 0,0 l/m 0 min 0 min 0,0 UV-I 0 W/m 10,5 km/h (2 Bft)
10.07.2014 00:06 18,1 C 16,7 C 100 % 1005,5 hPa 0,0 l/m 0 min 0 min 0,0 UV-I 0 W/m 0,0 km/h (0 Bft)
10.07.2014 00:08 18,1 C 16,7 C 100 % 1005,6 hPa 0,0 l/m 0 min 0 min 0,0 UV-I 0 W/m 4,2 km/h (1 Bft)
10.07.2014 00:10 18,1 C 16,7 C 100 % 1005,6 hPa 0,0 l/m 0 min 0 min 0,0 UV-I 0 W/m 8,4 km/h (2 Bft)
10.07.2014 00:12 18,1 C 16,7 C 100 % 1005,6 hPa 0,0 l/m 0 min 0 min 0,0 UV-I 0 W/m 8,4 km/h (2 Bft)
10.07.2014 00:14 18,1 C 16,7 C 100 % 1005,5 hPa 0,0 l/m 0 min 0 min 0,0 UV-I 0 W/m 10,5 km/h (2 Bft)
10.07.2014 00:16 18,1 C 16,7 C 100 % 1005,5 hPa 0,0 l/m 0 min 0 min 0,0 UV-I 0 W/m 10,5 km/h (2 Bft)
10.07.2014 00:18 18,1 C 16,7 C 100 % 1005,6 hPa 0,0 l/m 0 min 0 min 0,0 UV-I 0 W/m 6,3 km/h (2 Bft)
10.07.2014 00:20 18,1 C 16,7 C 100 % 1005,6 hPa 0,0 l/m 0 min 0 min 0,0 UV-I 0 W/m 12,6 km/h (3 Bft)
10.07.2014 00:22 18,1 C 16,7 C 100 % 1005,6 hPa 0,0 l/m 0 min 0 min 0,0 UV-I 0 W/m 6,3 km/h (2 Bft)
10.07.2014 00:24 18,1 C 16,7 C 100 % 1005,6 hPa 0,0 l/m 0 min 0 min 0,0 UV-I 0 W/m 10,5 km/h (2 Bft)
10.07.2014 00:26 18,1 C 16,7 C 100 % 1005,7 hPa 0,0 l/m 0 min 0 min 0,0 UV-I 0 W/m 6,3 km/h (2 Bft)
10.07.2014 00:28 18,1 C 16,7 C 100 % 1005,8 hPa 0,0 l/m 0 min 0 min 0,0 UV-I 0 W/m 14,6 km/h (3 Bft)
10.07.2014 00:30 18,1 C 16,7 C 100 % 1005,8 hPa 0,0 l/m 0 min 2 min 0,0 UV-I 0 W/m 10,5 km/h (2 Bft)
10.07.2014 00:32 18,1 C 16,7 C 100 % 1005,7 hPa 0,0 l/m 0 min 0 min 0,0 UV-I 0 W/m 6,3 km/h (2 Bft)
10.07.2014 00:34 18,1 C 16,7 C 100 % 1005,6 hPa 0,0 l/m 0 min 0 min 0,0 UV-I 0 W/m 6,3 km/h (2 Bft)
10.07.2014 00:36 18,1 C 16,7 C 100 % 1005,6 hPa 0,0 l/m 0 min 0 min 0,0 UV-I 0 W/m 10,5 km/h (2 Bft)
10.07.2014 00:38 18,1 C 16,7 C 100 % 1005,6 hPa 0,0 l/m 0 min 0 min 0,0 UV-I 0 W/m 10,5 km/h (2 Bft)
10.07.2014 00:40 18,1 C 16,7 C 100 % 1005,7 hPa 0,0 l/m 0 min 0 min 0,0 UV-I 0 W/m 10,5 km/h (2 Bft)
10.07.2014 00:42 18,1 C 16,7 C 100 % 1005,7 hPa 0,0 l/m 0 min 0 min 0,0 UV-I 0 W/m 10,5 km/h (2 Bft)
10.07.2014 00:44 18,1 C 16,7 C 100 % 1005,7 hPa 0,0 l/m 0 min 0 min 0,0 UV-I 0 W/m 6,3 km/h (2 Bft)
10.07.2014 00:46 18,1 C 16,7 C 100 % 1005,8 hPa 0,0 l/m 0 min 0 min 0,0 UV-I 0 W/m 10,5 km/h (2 Bft)
10.07.2014 00:48 18,1 C 16,7 C 100 % 1005,7 hPa 0,0 l/m 0 min 0 min 0,0 UV-I 0 W/m 12,6 km/h (3 Bft)
10.07.2014 00:50 18,1 C 16,7 C 100 % 1005,6 hPa 0,0 l/m 0 min 0 min 0,0 UV-I 0 W/m 10,5 km/h (2 Bft)
10.07.2014 00:52 18,1 C 16,7 C 100 % 1005,7 hPa 0,0 l/m 0 min 0 min 0,0 UV-I 0 W/m 8,4 km/h (2 Bft)
10.07.2014 00:54 18,1 C 16,7 C 100 % 1005,7 hPa 0,0 l/m 0 min 0 min 0,0 UV-I 0 W/m 0,0 km/h (0 Bft)
10.07.2014 00:56 18,1 C 16,7 C 100 % 1005,8 hPa 0,0 l/m 0 min 0 min 0,0 UV-I 0 W/m 0,0 km/h (0 Bft)
10.07.2014 00:58 18,1 C 16,7 C 100 % 1005,7 hPa 0,0 l/m 0 min 0 min 0,0 UV-I 0 W/m 0,0 km/h (0 Bft)
10.07.2014 01:00 18,1 C 16,7 C 100 % 1005,8 hPa 0,0 l/m 0 min 0 min 0,0 UV-I 0 W/m 0,0 km/h (0 Bft)
10.07.2014 01:02 18,1 C 16,7 C 100 % 1005,8 hPa 0,0 l/m 0 min 0 min 0,0 UV-I 0 W/m 0,0 km/h (0 Bft)
10.07.2014 01:04 18,1 C 16,7 C 100 % 1005,8 hPa 0,0 l/m 0 min 0 min 0,0 UV-I 0 W/m 0,0 km/h (0 Bft)
10.07.2014 01:06 18,1 C 16,7 C 100 % 1005,8 hPa 0,0 l/m 0 min 0 min 0,0 UV-I 0 W/m 0,0 km/h (0 Bft)
10.07.2014 01:08 18,1 C 16,7 C 100 % 1005,8 hPa 0,0 l/m 0 min 0 min 0,0 UV-I 0 W/m 0,0 km/h (0 Bft)
10.07.2014 01:10 18,1 C 16,7 C 100 % 1005,9 hPa 0,0 l/m 0 min 0 min 0,0 UV-I 0 W/m 0,0 km/h (0 Bft)
10.07.2014 01:12 18,1 C 16,7 C 100 % 1005,9 hPa 0,0 l/m 0 min 0 min 0,0 UV-I 0 W/m 0,0 km/h (0 Bft)
10.07.2014 01:14 18,1 C 16,7 C 100 % 1005,9 hPa 0,0 l/m 0 min 2 min 0,0 UV-I 0 W/m 2,1 km/h (1 Bft)
10.07.2014 01:16 18,1 C 16,7 C 100 % 1005,9 hPa 0,0 l/m 0 min 2 min 0,0 UV-I 0 W/m 0,0 km/h (0 Bft)
10.07.2014 01:18 18,1 C 16,7 C 100 % 1005,9 hPa 0,0 l/m 0 min 0 min 0,0 UV-I 0 W/m 0,0 km/h (0 Bft)
10.07.2014 01:20 18,1 C 16,7 C 100 % 1005,9 hPa 0,0 l/m 0 min 0 min 0,0 UV-I 0 W/m 0,0 km/h (0 Bft)
10.07.2014 01:22 18,1 C 16,7 C 100 % 1005,9 hPa 0,0 l/m 0 min 2 min 0,0 UV-I 0 W/m 0,0 km/h (0 Bft)
10.07.2014 01:24 18,1 C 16,7 C 100 % 1006,0 hPa 0,0 l/m 0 min 0 min 0,0 UV-I 0 W/m 0,0 km/h (0 Bft)
10.07.2014 01:26 18,1 C 16,7 C 100 % 1006,0 hPa 0,0 l/m 0 min 0 min 0,0 UV-I 0 W/m 0,0 km/h (0 Bft)
10.07.2014 01:28 18,1 C 16,7 C 100 % 1006,0 hPa 0,0 l/m 0 min 0 min 0,0 UV-I 0 W/m 0,0 km/h (0 Bft)
10.07.2014 01:30 18,1 C 16,7 C 100 % 1006,0 hPa 0,0 l/m 0 min 0 min 0,0 UV-I 0 W/m 2,1 km/h (1 Bft)
10.07.2014 01:32 18,1 C 16,7 C 100 % 1006,0 hPa 0,0 l/m 0 min 0 min 0,0 UV-I 0 W/m 2,1 km/h (1 Bft)
10.07.2014 01:34 18,1 C 16,7 C 100 % 1006,0 hPa 0,0 l/m 0 min 0 min 0,0 UV-I 0 W/m 0,0 km/h (0 Bft)
10.07.2014 01:36 18,1 C 16,7 C 100 % 1006,1 hPa 0,0 l/m 0 min 0 min 0,0 UV-I 0 W/m 6,3 km/h (2 Bft)
10.07.2014 01:38 18,1 C 16,1 C 100 % 1006,1 hPa 0,0 l/m 0 min 0 min 0,0 UV-I 0 W/m 6,3 km/h (2 Bft)
10.07.2014 01:40 18,1 C 16,1 C 100 % 1006,1 hPa 0,0 l/m 0 min 0 min 0,0 UV-I 0 W/m 6,3 km/h (2 Bft)
10.07.2014 01:42 18,1 C 16,1 C 100 % 1006,1 hPa 0,0 l/m 0 min 0 min 0,0 UV-I 0 W/m 0,0 km/h (0 Bft)
10.07.2014 01:44 18,1 C 16,1 C 100 % 1006,0 hPa 0,0 l/m 0 min 2 min 0,0 UV-I 0 W/m 0,0 km/h (0 Bft)
10.07.2014 01:46 18,1 C 16,1 C 100 % 1006,1 hPa 0,0 l/m 0 min 0 min 0,0 UV-I 0 W/m 0,0 km/h (0 Bft)
10.07.2014 01:48 18,1 C 16,1 C 100 % 1006,0 hPa 0,0 l/m 0 min 0 min 0,0 UV-I 0 W/m 0,0 km/h (0 Bft)
10.07.2014 01:50 18,1 C 16,1 C 100 % 1006,0 hPa 0,0 l/m 0 min 0 min 0,0 UV-I 0 W/m 0,0 km/h (0 Bft)
10.07.2014 01:52 18,1 C 16,1 C 100 % 1006,1 hPa 0,0 l/m 0 min 0 min 0,0 UV-I 0 W/m 0,0 km/h (0 Bft)
10.07.2014 01:54 18,1 C 16,1 C 100 % 1006,0 hPa 0,0 l/m 0 min 0 min 0,0 UV-I 0 W/m 0,0 km/h (0 Bft)
10.07.2014 01:56 18,1 C 16,1 C 100 % 1006,1 hPa 0,0 l/m 0 min 0 min 0,0 UV-I 0 W/m 0,0 km/h (0 Bft)
10.07.2014 01:58 18,1 C 16,1 C 100 % 1006,1 hPa 0,0 l/m 0 min 0 min 0,0 UV-I 0 W/m 0,0 km/h (0 Bft)
10.07.2014 02:00 18,1 C 16,1 C 100 % 1006,2 hPa 0,0 l/m 0 min 0 min 0,0 UV-I 0 W/m 0,0 km/h (0 Bft)
10.07.2014 02:02 18,1 C 16,1 C 100 % 1006,2 hPa 0,0 l/m 0 min 0 min 0,0 UV-I 0 W/m 0,0 km/h (0 Bft)
10.07.2014 02:04 18,1 C 16,1 C 100 % 1006,2 hPa 0,0 l/m 0 min 0 min 0,0 UV-I 0 W/m 0,0 km/h (0 Bft)
10.07.2014 02:06 18,1 C 16,1 C 100 % 1006,2 hPa 0,0 l/m 0 min 0 min 0,0 UV-I 0 W/m 0,0 km/h (0 Bft)
10.07.2014 02:08 18,1 C 16,1 C 100 % 1006,2 hPa 0,0 l/m 0 min 0 min 0,0 UV-I 0 W/m 0,0 km/h (0 Bft)
10.07.2014 02:10 18,1 C 16,1 C 100 % 1006,2 hPa 0,0 l/m 0 min 0 min 0,0 UV-I 0 W/m 0,0 km/h (0 Bft)
10.07.2014 02:12 18,1 C 16,1 C 100 % 1006,2 hPa 0,0 l/m 0 min 0 min 0,0 UV-I 0 W/m 0,0 km/h (0 Bft)
10.07.2014 02:14 18,1 C 16,1 C 100 % 1006,2 hPa 0,0 l/m 0 min 0 min 0,0 UV-I 0 W/m 0,0 km/h (0 Bft)
10.07.2014 02:16 18,1 C 16,1 C 100 % 1006,2 hPa 0,0 l/m 0 min 0 min 0,0 UV-I 0 W/m 0,0 km/h (0 Bft)
10.07.2014 02:18 18,1 C 16,1 C 100 % 1006,1 hPa 0,0 l/m 0 min 0 min 0,0 UV-I 0 W/m 0,0 km/h (0 Bft)
10.07.2014 02:20 18,1 C 16,1 C 100 % 1006,2 hPa 0,0 l/m 0 min 2 min 0,0 UV-I 0 W/m 0,0 km/h (0 Bft)
10.07.2014 02:22 18,1 C 16,1 C 100 % 1006,3 hPa 0,0 l/m 0 min 0 min 0,0 UV-I 0 W/m 0,0 km/h (0 Bft)
10.07.2014 02:24 18,1 C 16,1 C 100 % 1006,2 hPa 0,0 l/m 0 min 0 min 0,0 UV-I 0 W/m 0,0 km/h (0 Bft)
10.07.2014 02:26 18,1 C 16,1 C 100 % 1006,2 hPa 0,0 l/m 0 min 0 min 0,0 UV-I 0 W/m 0,0 km/h (0 Bft)
10.07.2014 02:28 18,1 C 16,1 C 100 % 1006,2 hPa 0,0 l/m 0 min 0 min 0,0 UV-I 0 W/m 0,0 km/h (0 Bft)
10.07.2014 02:30 18,1 C 16,1 C 100 % 1006,3 hPa 0,0 l/m 0 min 0 min 0,0 UV-I 0 W/m 0,0 km/h (0 Bft)
10.07.2014 02:32 18,1 C 16,1 C 100 % 1006,2 hPa 0,0 l/m 0 min 0 min 0,0 UV-I 0 W/m 0,0 km/h (0 Bft)
10.07.2014 02:34 18,1 C 16,1 C 100 % 1006,3 hPa 0,0 l/m 0 min 0 min 0,0 UV-I 0 W/m 0,0 km/h (0 Bft)
10.07.2014 02:36 18,1 C 16,1 C 100 % 1006,2 hPa 0,0 l/m 0 min 0 min 0,0 UV-I 0 W/m 0,0 km/h (0 Bft)
10.07.2014 02:38 18,1 C 16,1 C 100 % 1006,2 hPa 0,0 l/m 0 min 0 min 0,0 UV-I 0 W/m 0,0 km/h (0 Bft)
10.07.2014 02:40 18,1 C 16,1 C 100 % 1006,2 hPa 0,0 l/m 0 min 0 min 0,0 UV-I 0 W/m 0,0 km/h (0 Bft)
10.07.2014 02:42 18,1 C 16,1 C 100 % 1006,3 hPa 0,0 l/m 0 min 2 min 0,0 UV-I 0 W/m 0,0 km/h (0 Bft)
10.07.2014 02:44 18,1 C 16,1 C 100 % 1006,3 hPa 0,0 l/m 0 min 2 min 0,0 UV-I 0 W/m 0,0 km/h (0 Bft)
10.07.2014 02:46 18,1 C 16,1 C 100 % 1006,3 hPa 0,0 l/m 0 min 2 min 0,0 UV-I 0 W/m 0,0 km/h (0 Bft)
10.07.2014 02:48 18,1 C 16,1 C 100 % 1006,3 hPa 0,0 l/m 0 min 2 min 0,0 UV-I 0 W/m 0,0 km/h (0 Bft)
10.07.2014 02:50 18,1 C 16,1 C 100 % 1006,3 hPa 0,0 l/m 0 min 0 min 0,0 UV-I 0 W/m 0,0 km/h (0 Bft)
10.07.2014 02:52 18,1 C 16,1 C 100 % 1006,3 hPa 0,0 l/m 0 min 0 min 0,0 UV-I 0 W/m 0,0 km/h (0 Bft)
10.07.2014 02:54 18,1 C 16,1 C 100 % 1006,3 hPa 0,0 l/m 0 min 0 min 0,0 UV-I 0 W/m 0,0 km/h (0 Bft)
10.07.2014 02:56 18,1 C 16,1 C 100 % 1006,3 hPa 0,0 l/m 0 min 0 min 0,0 UV-I 0 W/m 0,0 km/h (0 Bft)
10.07.2014 02:58 18,1 C 16,1 C 100 % 1006,3 hPa 0,0 l/m 0 min 0 min 0,0 UV-I 0 W/m 0,0 km/h (0 Bft)
10.07.2014 03:00 18,1 C 16,1 C 100 % 1006,3 hPa 0,0 l/m 0 min 0 min 0,0 UV-I 0 W/m 0,0 km/h (0 Bft)
10.07.2014 03:02 18,1 C 16,1 C 100 % 1006,3 hPa 0,0 l/m 0 min 0 min 0,0 UV-I 0 W/m 0,0 km/h (0 Bft)
10.07.2014 03:04 18,1 C 16,1 C 100 % 1006,4 hPa 0,0 l/m 0 min 0 min 0,0 UV-I 0 W/m 0,0 km/h (0 Bft)
10.07.2014 03:06 18,1 C 16,1 C 100 % 1006,3 hPa 0,0 l/m 0 min 0 min 0,0 UV-I 0 W/m 0,0 km/h (0 Bft)
10.07.2014 03:08 18,1 C 16,1 C 100 % 1006,3 hPa 0,0 l/m 0 min 0 min 0,0 UV-I 0 W/m 0,0 km/h (0 Bft)
10.07.2014 03:10 18,1 C 16,1 C 100 % 1006,3 hPa 0,0 l/m 0 min 0 min 0,0 UV-I 0 W/m 0,0 km/h (0 Bft)
10.07.2014 03:12 18,1 C 16,1 C 100 % 1006,3 hPa 0,0 l/m 0 min 0 min 0,0 UV-I 0 W/m 0,0 km/h (0 Bft)
10.07.2014 03:14 18,1 C 16,1 C 100 % 1006,3 hPa 0,0 l/m 0 min 0 min 0,0 UV-I 0 W/m 0,0 km/h (0 Bft)
10.07.2014 03:16 18,1 C 16,1 C 100 % 1006,3 hPa 0,0 l/m 0 min 0 min 0,0 UV-I 0 W/m 0,0 km/h (0 Bft)
10.07.2014 03:18 18,1 C 16,1 C 100 % 1006,4 hPa 0,0 l/m 0 min 0 min 0,0 UV-I 0 W/m 0,0 km/h (0 Bft)
10.07.2014 03:20 18,1 C 16,1 C 100 % 1006,4 hPa 0,0 l/m 0 min 0 min 0,0 UV-I 0 W/m 0,0 km/h (0 Bft)
10.07.2014 03:22 18,1 C 16,1 C 100 % 1006,4 hPa 0,0 l/m 0 min 0 min 0,0 UV-I 0 W/m 0,0 km/h (0 Bft)
10.07.2014 03:24 18,1 C 16,1 C 100 % 1006,5 hPa 0,0 l/m 0 min 0 min 0,0 UV-I 0 W/m 0,0 km/h (0 Bft)
10.07.2014 03:26 18,1 C 16,1 C 100 % 1006,5 hPa 0,0 l/m 0 min 0 min 0,0 UV-I 0 W/m 0,0 km/h (0 Bft)
10.07.2014 03:28 18,1 C 16,1 C 100 % 1006,5 hPa 0,0 l/m 0 min 0 min 0,0 UV-I 0 W/m 4,2 km/h (1 Bft)
10.07.2014 03:30 18,1 C 16,1 C 100 % 1006,5 hPa 0,0 l/m 0 min 0 min 0,0 UV-I 0 W/m 4,2 km/h (1 Bft)
10.07.2014 03:32 18,1 C 16,1 C 100 % 1006,5 hPa 0,0 l/m 0 min 0 min 0,0 UV-I 0 W/m 0,0 km/h (0 Bft)
10.07.2014 03:34 18,1 C 16,1 C 100 % 1006,5 hPa 0,0 l/m 0 min 0 min 0,0 UV-I 0 W/m 0,0 km/h (0 Bft)
10.07.2014 03:36 18,1 C 16,1 C 100 % 1006,5 hPa 0,0 l/m 0 min 0 min 0,0 UV-I 0 W/m 0,0 km/h (0 Bft)
10.07.2014 03:38 18,1 C 16,1 C 100 % 1006,5 hPa 0,0 l/m 0 min 0 min 0,0 UV-I 0 W/m 0,0 km/h (0 Bft)
10.07.2014 03:40 18,1 C 16,1 C 100 % 1006,5 hPa 0,0 l/m 0 min 0 min 0,0 UV-I 0 W/m 0,0 km/h (0 Bft)
10.07.2014 03:42 18,1 C 15,6 C 100 % 1006,5 hPa 0,0 l/m 0 min 0 min 0,0 UV-I 0 W/m 4,2 km/h (1 Bft)
10.07.2014 03:44 18,1 C 15,6 C 100 % 1006,6 hPa 0,0 l/m 0 min 0 min 0,0 UV-I 0 W/m 12,6 km/h (3 Bft)
10.07.2014 03:46 18,1 C 15,6 C 100 % 1006,5 hPa 0,0 l/m 0 min 0 min 0,0 UV-I 0 W/m 6,3 km/h (2 Bft)
10.07.2014 03:48 18,1 C 15,6 C 100 % 1006,5 hPa 0,0 l/m 0 min 0 min 0,0 UV-I 0 W/m 0,0 km/h (0 Bft)
10.07.2014 03:50 18,1 C 15,6 C 100 % 1006,5 hPa 0,0 l/m 0 min 0 min 0,0 UV-I 0 W/m 4,2 km/h (1 Bft)
10.07.2014 03:52 18,1 C 15,6 C 100 % 1006,5 hPa 0,0 l/m 0 min 0 min 0,0 UV-I 0 W/m 0,0 km/h (0 Bft)
10.07.2014 03:54 18,1 C 15,6 C 100 % 1006,5 hPa 0,0 l/m 0 min 0 min 0,0 UV-I 0 W/m 0,0 km/h (0 Bft)
10.07.2014 03:56 18,1 C 15,6 C 100 % 1006,5 hPa 0,0 l/m 0 min 0 min 0,0 UV-I 0 W/m 2,1 km/h (1 Bft)
10.07.2014 03:58 18,1 C 15,6 C 100 % 1006,5 hPa 0,0 l/m 0 min 0 min 0,0 UV-I 0 W/m 0,0 km/h (0 Bft)
10.07.2014 04:00 18,1 C 15,6 C 100 % 1006,5 hPa 0,0 l/m 0 min 0 min 0,0 UV-I 0 W/m 0,0 km/h (0 Bft)
10.07.2014 04:05 18,1 C 15,6 C 100 % 1006,5 hPa 0,0 l/m 0 min 0 min 0,0 UV-I 0 W/m 6,3 km/h (2 Bft)
10.07.2014 04:06 18,1 C 15,6 C 100 % 1006,5 hPa 0,0 l/m 0 min 0 min 0,0 UV-I 0 W/m 0,0 km/h (0 Bft)
10.07.2014 04:08 18,1 C 15,6 C 100 % 1006,6 hPa 0,0 l/m 0 min 0 min 0,0 UV-I 0 W/m 0,0 km/h (0 Bft)
10.07.2014 04:10 18,1 C 15,6 C 100 % 1006,6 hPa 0,0 l/m 0 min 0 min 0,0 UV-I 0 W/m 0,0 km/h (0 Bft)
10.07.2014 04:12 18,1 C 15,6 C 100 % 1006,6 hPa 0,0 l/m 0 min 0 min 0,0 UV-I 0 W/m 0,0 km/h (0 Bft)
10.07.2014 04:14 18,1 C 15,6 C 100 % 1006,6 hPa 0,0 l/m 0 min 0 min 0,0 UV-I 0 W/m 0,0 km/h (0 Bft)
10.07.2014 04:16 18,1 C 15,6 C 100 % 1006,6 hPa 0,0 l/m 0 min 0 min 0,0 UV-I 0 W/m 0,0 km/h (0 Bft)
10.07.2014 04:18 18,1 C 15,6 C 100 % 1006,6 hPa 0,0 l/m 0 min 0 min 0,0 UV-I 0 W/m 0,0 km/h (0 Bft)
10.07.2014 04:20 18,1 C 15,6 C 100 % 1006,6 hPa 0,0 l/m 0 min 0 min 0,0 UV-I 0 W/m 0,0 km/h (0 Bft)
10.07.2014 04:22 18,1 C 15,6 C 100 % 1006,6 hPa 0,0 l/m 0 min 0 min 0,0 UV-I 0 W/m 0,0 km/h (0 Bft)
10.07.2014 04:24 18,1 C 15,6 C 100 % 1006,5 hPa 0,0 l/m 0 min 0 min 0,0 UV-I 0 W/m 0,0 km/h (0 Bft)
10.07.2014 04:26 18,1 C 15,6 C 100 % 1006,5 hPa 0,0 l/m 0 min 0 min 0,0 UV-I 0 W/m 0,0 km/h (0 Bft)
10.07.2014 04:28 18,1 C 15,6 C 100 % 1006,4 hPa 0,0 l/m 0 min 0 min 0,0 UV-I 0 W/m 0,0 km/h (0 Bft)
10.07.2014 04:30 18,1 C 15,6 C 100 % 1006,3 hPa 0,0 l/m 0 min 0 min 0,0 UV-I 0 W/m 0,0 km/h (0 Bft)
10.07.2014 04:32 18,1 C 15,6 C 100 % 1006,4 hPa 0,0 l/m 0 min 0 min 0,0 UV-I 0 W/m 0,0 km/h (0 Bft)
10.07.2014 04:34 18,1 C 15,6 C 100 % 1006,4 hPa 0,0 l/m 0 min 0 min 0,0 UV-I 0 W/m 0,0 km/h (0 Bft)
10.07.2014 04:36 18,1 C 15,6 C 100 % 1006,4 hPa 0,0 l/m 0 min 0 min 0,0 UV-I 0 W/m 0,0 km/h (0 Bft)
10.07.2014 04:38 18,1 C 15,6 C 100 % 1006,5 hPa 0,0 l/m 0 min 0 min 0,0 UV-I 0 W/m 0,0 km/h (0 Bft)
10.07.2014 04:40 18,1 C 15,6 C 100 % 1006,6 hPa 0,0 l/m 0 min 0 min 0,0 UV-I 0 W/m 0,0 km/h (0 Bft)
10.07.2014 04:42 18,1 C 15,6 C 100 % 1006,6 hPa 0,0 l/m 0 min 0 min 0,0 UV-I 0 W/m 0,0 km/h (0 Bft)
10.07.2014 04:44 18,1 C 15,6 C 100 % 1006,6 hPa 0,0 l/m 0 min 0 min 0,0 UV-I 0 W/m 0,0 km/h (0 Bft)
10.07.2014 04:46 18,1 C 15,6 C 100 % 1006,6 hPa 0,0 l/m 0 min 0 min 0,0 UV-I 0 W/m 0,0 km/h (0 Bft)
10.07.2014 04:48 18,1 C 15,6 C 100 % 1006,6 hPa 0,0 l/m 0 min 0 min 0,0 UV-I 0 W/m 0,0 km/h (0 Bft)
10.07.2014 04:50 18,1 C 15,6 C 100 % 1006,6 hPa 0,0 l/m 0 min 0 min 0,0 UV-I 0 W/m 0,0 km/h (0 Bft)
10.07.2014 04:52 18,1 C 15,6 C 100 % 1006,6 hPa 0,0 l/m 0 min 0 min 0,0 UV-I 0 W/m 0,0 km/h (0 Bft)
10.07.2014 04:54 18,1 C 15,6 C 100 % 1006,7 hPa 0,0 l/m 0 min 0 min 0,0 UV-I 0 W/m 0,0 km/h (0 Bft)
10.07.2014 04:56 18,1 C 15,6 C 100 % 1006,7 hPa 0,0 l/m 0 min 0 min 0,0 UV-I 0 W/m 0,0 km/h (0 Bft)
10.07.2014 04:58 18,1 C 15,6 C 100 % 1006,6 hPa 0,0 l/m 0 min 0 min 0,0 UV-I 0 W/m 0,0 km/h (0 Bft)
10.07.2014 05:00 18,1 C 15,6 C 100 % 1006,6 hPa 0,0 l/m 0 min 0 min 0,0 UV-I 0 W/m 0,0 km/h (0 Bft)
10.07.2014 05:02 18,1 C 15,6 C 100 % 1006,7 hPa 0,0 l/m 0 min 0 min 0,0 UV-I 0 W/m 0,0 km/h (0 Bft)
10.07.2014 05:04 18,1 C 15,6 C 100 % 1006,7 hPa 0,0 l/m 0 min 0 min 0,0 UV-I 0 W/m 0,0 km/h (0 Bft)
10.07.2014 05:06 18,1 C 15,6 C 100 % 1006,7 hPa 0,0 l/m 0 min 0 min 0,0 UV-I 0 W/m 0,0 km/h (0 Bft)
10.07.2014 05:08 18,1 C 15,6 C 100 % 1006,7 hPa 0,0 l/m 0 min 0 min 0,0 UV-I 0 W/m 0,0 km/h (0 Bft)
10.07.2014 05:10 18,1 C 15,6 C 100 % 1006,8 hPa 0,0 l/m 0 min 0 min 0,0 UV-I 0 W/m 0,0 km/h (0 Bft)
10.07.2014 05:12 18,1 C 15,6 C 100 % 1006,7 hPa 0,0 l/m 0 min 0 min 0,0 UV-I 0 W/m 0,0 km/h (0 Bft)
10.07.2014 05:14 18,1 C 15,6 C 100 % 1006,7 hPa 0,0 l/m 0 min 0 min 0,0 UV-I 0 W/m 0,0 km/h (0 Bft)
10.07.2014 05:16 18,1 C 15,6 C 100 % 1006,7 hPa 0,0 l/m 0 min 0 min 0,0 UV-I 0 W/m 0,0 km/h (0 Bft)
10.07.2014 05:18 18,1 C 15,6 C 100 % 1006,8 hPa 0,0 l/m 0 min 0 min 0,0 UV-I 0 W/m 0,0 km/h (0 Bft)
10.07.2014 05:20 16,6 C 15,6 C 100 % 1006,8 hPa 0,0 l/m 0 min 0 min 0,0 UV-I 0 W/m 0,0 km/h (0 Bft)
10.07.2014 05:22 16,6 C 15,6 C 100 % 1006,8 hPa 0,0 l/m 0 min 0 min 0,0 UV-I 0 W/m 0,0 km/h (0 Bft)
10.07.2014 05:24 16,6 C 15,6 C 100 % 1006,8 hPa 0,0 l/m 0 min 0 min 0,0 UV-I 0 W/m 0,0 km/h (0 Bft)
10.07.2014 05:26 16,6 C 15,6 C 100 % 1006,8 hPa 0,0 l/m 0 min 0 min 0,0 UV-I 0 W/m 0,0 km/h (0 Bft)
10.07.2014 05:28 16,6 C 15,6 C 100 % 1006,8 hPa 0,0 l/m 0 min 0 min 0,0 UV-I 0 W/m 0,0 km/h (0 Bft)
10.07.2014 05:30 16,6 C 15,6 C 100 % 1006,8 hPa 0,0 l/m 0 min 0 min 0,0 UV-I 0 W/m 0,0 km/h (0 Bft)
10.07.2014 05:32 16,6 C 15,6 C 100 % 1006,8 hPa 0,0 l/m 0 min 0 min 0,0 UV-I 0 W/m 0,0 km/h (0 Bft)
10.07.2014 05:34 16,6 C 15,6 C 100 % 1006,8 hPa 0,0 l/m 0 min 0 min 0,0 UV-I 0 W/m 0,0 km/h (0 Bft)
10.07.2014 05:36 16,6 C 15,6 C 100 % 1006,8 hPa 0,0 l/m 0 min 0 min 0,0 UV-I 0 W/m 2,1 km/h (1 Bft)
10.07.2014 05:38 16,6 C 15,6 C 100 % 1006,9 hPa 0,0 l/m 0 min 0 min 0,0 UV-I 0 W/m 0,0 km/h (0 Bft)
10.07.2014 05:40 16,6 C 15,6 C 100 % 1006,8 hPa 0,0 l/m 0 min 0 min 0,0 UV-I 0 W/m 0,0 km/h (0 Bft)
10.07.2014 05:42 16,6 C 15,6 C 100 % 1006,8 hPa 0,0 l/m 0 min 0 min 0,0 UV-I 5 W/m 0,0 km/h (0 Bft)
10.07.2014 05:44 16,6 C 15,6 C 100 % 1006,8 hPa 0,0 l/m 0 min 0 min 0,0 UV-I 5 W/m 0,0 km/h (0 Bft)
10.07.2014 05:46 16,6 C 15,6 C 100 % 1006,8 hPa 0,0 l/m 0 min 0 min 0,0 UV-I 5 W/m 0,0 km/h (0 Bft)
10.07.2014 05:48 16,6 C 15,6 C 100 % 1006,8 hPa 0,0 l/m 0 min 0 min 0,0 UV-I 5 W/m 0,0 km/h (0 Bft)
10.07.2014 05:50 16,6 C 15,6 C 100 % 1006,8 hPa 0,0 l/m 0 min 0 min 0,0 UV-I 7 W/m 0,0 km/h (0 Bft)
10.07.2014 05:52 16,6 C 15,6 C 100 % 1006,8 hPa 0,0 l/m 0 min 0 min 0,0 UV-I 7 W/m 0,0 km/h (0 Bft)
10.07.2014 05:54 16,6 C 15,6 C 100 % 1006,8 hPa 0,0 l/m 0 min 0 min 0,0 UV-I 7 W/m 0,0 km/h (0 Bft)
10.07.2014 05:56 16,6 C 15,6 C 100 % 1006,8 hPa 0,0 l/m 0 min 0 min 0,0 UV-I 9 W/m 0,0 km/h (0 Bft)
10.07.2014 05:58 16,6 C 15,6 C 100 % 1006,8 hPa 0,0 l/m 0 min 0 min 0,0 UV-I 11 W/m 0,0 km/h (0 Bft)
10.07.2014 06:00 16,6 C 15,6 C 100 % 1006,8 hPa 0,0 l/m 0 min 0 min 0,0 UV-I 11 W/m 0,0 km/h (0 Bft)
10.07.2014 06:02 16,6 C 15,6 C 100 % 1006,9 hPa 0,0 l/m 0 min 0 min 0,0 UV-I 11 W/m 0,0 km/h (0 Bft)
10.07.2014 06:06 16,6 C 15,6 C 100 % 1006,9 hPa 0,0 l/m 0 min 0 min 0,0 UV-I 11 W/m 0,0 km/h (0 Bft)
10.07.2014 06:08 16,6 C 15,6 C 100 % 1006,9 hPa 0,0 l/m 0 min 0 min 0,0 UV-I 11 W/m 0,0 km/h (0 Bft)
10.07.2014 06:10 16,6 C 15,6 C 100 % 1006,9 hPa 0,0 l/m 0 min 0 min 0,0 UV-I 11 W/m 0,0 km/h (0 Bft)
10.07.2014 06:12 16,6 C 15,6 C 100 % 1006,9 hPa 0,0 l/m 0 min 0 min 0,0 UV-I 12 W/m 0,0 km/h (0 Bft)
10.07.2014 06:14 16,6 C 15,6 C 100 % 1007,0 hPa 0,0 l/m 0 min 0 min 0,0 UV-I 14 W/m 0,0 km/h (0 Bft)
10.07.2014 06:16 16,6 C 15,6 C 100 % 1007,0 hPa 0,0 l/m 0 min 0 min 0,0 UV-I 16 W/m 0,0 km/h (0 Bft)
10.07.2014 06:18 16,6 C 15,6 C 100 % 1007,0 hPa 0,0 l/m 0 min 0 min 0,0 UV-I 14 W/m 0,0 km/h (0 Bft)
10.07.2014 06:20 16,6 C 15,6 C 100 % 1006,9 hPa 0,0 l/m 0 min 0 min 0,0 UV-I 16 W/m 0,0 km/h (0 Bft)
10.07.2014 06:22 16,6 C 15,6 C 100 % 1007,0 hPa 0,0 l/m 0 min 0 min 0,0 UV-I 16 W/m 0,0 km/h (0 Bft)
10.07.2014 06:24 16,6 C 15,6 C 100 % 1007,0 hPa 0,0 l/m 0 min 0 min 0,0 UV-I 19 W/m 0,0 km/h (0 Bft)
10.07.2014 06:26 16,6 C 15,6 C 100 % 1007,0 hPa 0,0 l/m 0 min 0 min 0,0 UV-I 19 W/m 0,0 km/h (0 Bft)
10.07.2014 06:28 16,6 C 15,6 C 100 % 1007,0 hPa 0,0 l/m 0 min 0 min 0,0 UV-I 21 W/m 0,0 km/h (0 Bft)
10.07.2014 06:30 16,6 C 15,6 C 100 % 1007,1 hPa 0,0 l/m 0 min 0 min 0,0 UV-I 21 W/m 0,0 km/h (0 Bft)
10.07.2014 06:32 16,6 C 15,6 C 100 % 1007,0 hPa 0,0 l/m 0 min 0 min 0,0 UV-I 21 W/m 0,0 km/h (0 Bft)
10.07.2014 06:34 16,6 C 15,6 C 100 % 1007,0 hPa 0,0 l/m 0 min 0 min 0,0 UV-I 21 W/m 0,0 km/h (0 Bft)
10.07.2014 06:36 16,6 C 15,6 C 100 % 1007,1 hPa 0,0 l/m 0 min 0 min 0,0 UV-I 19 W/m 0,0 km/h (0 Bft)
10.07.2014 06:38 16,6 C 15,6 C 100 % 1007,1 hPa 0,0 l/m 0 min 0 min 0,0 UV-I 19 W/m 0,0 km/h (0 Bft)
10.07.2014 06:40 16,6 C 15,6 C 100 % 1007,2 hPa 0,0 l/m 0 min 0 min 0,0 UV-I 21 W/m 0,0 km/h (0 Bft)
10.07.2014 06:42 16,7 C 15,6 C 100 % 1007,2 hPa 0,0 l/m 0 min 0 min 0,0 UV-I 23 W/m 0,0 km/h (0 Bft)
10.07.2014 06:44 16,7 C 15,6 C 100 % 1007,1 hPa 0,0 l/m 0 min 0 min 0,0 UV-I 21 W/m 0,0 km/h (0 Bft)
10.07.2014 06:46 16,7 C 15,6 C 100 % 1007,1 hPa 0,0 l/m 0 min 0 min 0,0 UV-I 19 W/m 0,0 km/h (0 Bft)
10.07.2014 06:48 16,7 C 15,6 C 100 % 1007,2 hPa 0,0 l/m 0 min 0 min 0,0 UV-I 21 W/m 0,0 km/h (0 Bft)
10.07.2014 06:50 16,7 C 15,6 C 100 % 1007,2 hPa 0,0 l/m 0 min 0 min 0,0 UV-I 25 W/m 0,0 km/h (0 Bft)
10.07.2014 06:52 16,7 C 15,6 C 100 % 1007,3 hPa 0,0 l/m 0 min 0 min 0,0 UV-I 23 W/m 0,0 km/h (0 Bft)
10.07.2014 06:54 16,7 C 15,6 C 100 % 1007,3 hPa 0,0 l/m 0 min 0 min 0,0 UV-I 26 W/m 0,0 km/h (0 Bft)
10.07.2014 06:56 16,7 C 15,6 C 100 % 1007,3 hPa 0,0 l/m 0 min 0 min 0,0 UV-I 30 W/m 0,0 km/h (0 Bft)
10.07.2014 06:58 16,7 C 15,6 C 100 % 1007,3 hPa 0,0 l/m 0 min 0 min 0,0 UV-I 30 W/m 0,0 km/h (0 Bft)
10.07.2014 07:00 16,7 C 16,1 C 100 % 1007,4 hPa 0,0 l/m 0 min 0 min 0,0 UV-I 28 W/m 0,0 km/h (0 Bft)
10.07.2014 07:02 16,7 C 16,1 C 100 % 1007,4 hPa 0,0 l/m 0 min 0 min 0,0 UV-I 28 W/m 0,0 km/h (0 Bft)
10.07.2014 07:04 16,7 C 16,1 C 100 % 1007,5 hPa 0,0 l/m 0 min 0 min 0,0 UV-I 33 W/m 0,0 km/h (0 Bft)
10.07.2014 07:06 16,7 C 16,1 C 100 % 1007,5 hPa 0,0 l/m 0 min 0 min 0,0 UV-I 37 W/m 0,0 km/h (0 Bft)
10.07.2014 07:08 16,7 C 16,1 C 100 % 1007,5 hPa 0,0 l/m 0 min 0 min 0,0 UV-I 39 W/m 0,0 km/h (0 Bft)
10.07.2014 07:10 16,7 C 16,1 C 100 % 1007,5 hPa 0,0 l/m 0 min 0 min 0,0 UV-I 49 W/m 0,0 km/h (0 Bft)
10.07.2014 07:12 16,8 C 16,1 C 100 % 1007,5 hPa 0,0 l/m 0 min 0 min 0,0 UV-I 51 W/m 0,0 km/h (0 Bft)
10.07.2014 07:14 16,8 C 16,1 C 100 % 1007,5 hPa 0,0 l/m 0 min 0 min 0,0 UV-I 46 W/m 0,0 km/h (0 Bft)
10.07.2014 07:16 16,8 C 16,1 C 100 % 1007,5 hPa 0,0 l/m 0 min 0 min 0,0 UV-I 47 W/m 0,0 km/h (0 Bft)
10.07.2014 07:18 16,8 C 16,1 C 100 % 1007,5 hPa 0,0 l/m 0 min 0 min 0,0 UV-I 60 W/m 0,0 km/h (0 Bft)
10.07.2014 07:20 16,9 C 16,1 C 100 % 1007,6 hPa 0,0 l/m 0 min 0 min 0,0 UV-I 62 W/m 0,0 km/h (0 Bft)
10.07.2014 07:22 16,9 C 16,7 C 100 % 1007,6 hPa 0,0 l/m 0 min 0 min 0,0 UV-I 47 W/m 2,1 km/h (1 Bft)
10.07.2014 07:24 16,9 C 16,7 C 100 % 1007,7 hPa 0,0 l/m 0 min 0 min 0,0 UV-I 46 W/m 6,3 km/h (2 Bft)
10.07.2014 07:26 17,0 C 16,7 C 100 % 1007,7 hPa 0,0 l/m 0 min 0 min 0,0 UV-I 39 W/m 6,3 km/h (2 Bft)
10.07.2014 07:28 17,1 C 16,7 C 100 % 1007,7 hPa 0,0 l/m 0 min 0 min 0,0 UV-I 44 W/m 8,4 km/h (2 Bft)
10.07.2014 07:30 17,2 C 16,7 C 100 % 1007,7 hPa 0,0 l/m 0 min 0 min 0,0 UV-I 60 W/m 6,3 km/h (2 Bft)
10.07.2014 07:32 17,2 C 16,7 C 100 % 1007,7 hPa 0,0 l/m 0 min 0 min 0,0 UV-I 47 W/m 0,0 km/h (0 Bft)
10.07.2014 07:34 17,3 C 16,7 C 100 % 1007,7 hPa 0,0 l/m 0 min 0 min 0,0 UV-I 30 W/m 8,4 km/h (2 Bft)
10.07.2014 07:36 17,4 C 16,7 C 100 % 1007,8 hPa 0,0 l/m 0 min 0 min 0,0 UV-I 32 W/m 4,2 km/h (1 Bft)
10.07.2014 07:38 17,4 C 16,7 C 100 % 1007,8 hPa 0,0 l/m 0 min 0 min 0,0 UV-I 49 W/m 8,4 km/h (2 Bft)
10.07.2014 07:40 17,5 C 16,7 C 100 % 1007,8 hPa 0,0 l/m 0 min 0 min 0,0 UV-I 70 W/m 10,5 km/h (2 Bft)
10.07.2014 07:42 17,6 C 16,7 C 100 % 1007,8 hPa 0,0 l/m 0 min 0 min 0,0 UV-I 53 W/m 0,0 km/h (0 Bft)
10.07.2014 07:44 17,6 C 16,7 C 100 % 1007,9 hPa 0,0 l/m 0 min 0 min 0,0 UV-I 49 W/m 14,6 km/h (3 Bft)
10.07.2014 07:46 17,7 C 16,7 C 100 % 1008,0 hPa 0,0 l/m 0 min 0 min 0,0 UV-I 26 W/m 12,6 km/h (3 Bft)
10.07.2014 07:48 17,7 C 16,7 C 100 % 1008,0 hPa 0,0 l/m 0 min 0 min 0,0 UV-I 28 W/m 8,4 km/h (2 Bft)
10.07.2014 07:50 17,8 C 16,7 C 100 % 1008,0 hPa 0,0 l/m 0 min 0 min 0,0 UV-I 35 W/m 10,5 km/h (2 Bft)
10.07.2014 07:52 17,8 C 16,7 C 100 % 1008,0 hPa 0,0 l/m 0 min 0 min 0,0 UV-I 72 W/m 6,3 km/h (2 Bft)
10.07.2014 07:54 17,8 C 16,7 C 100 % 1008,0 hPa 0,0 l/m 0 min 0 min 0,0 UV-I 51 W/m 8,4 km/h (2 Bft)
10.07.2014 07:56 17,8 C 16,7 C 100 % 1008,0 hPa 0,0 l/m 0 min 0 min 0,0 UV-I 40 W/m 8,4 km/h (2 Bft)
10.07.2014 07:58 17,9 C 16,7 C 100 % 1008,1 hPa 0,0 l/m 0 min 0 min 0,0 UV-I 44 W/m 12,6 km/h (3 Bft)
10.07.2014 08:00 17,9 C 16,7 C 100 % 1008,1 hPa 0,0 l/m 0 min 0 min 0,0 UV-I 63 W/m 8,4 km/h (2 Bft)
10.07.2014 08:02 17,9 C 17,2 C 100 % 1008,1 hPa 0,0 l/m 0 min 0 min 0,0 UV-I 63 W/m 16,7 km/h (3 Bft)
10.07.2014 08:04 17,9 C 17,2 C 100 % 1008,1 hPa 0,0 l/m 0 min 0 min 0,0 UV-I 51 W/m 14,6 km/h (3 Bft)
10.07.2014 08:06 17,9 C 17,2 C 100 % 1008,1 hPa 0,0 l/m 0 min 0 min 0,0 UV-I 56 W/m 12,6 km/h (3 Bft)
10.07.2014 08:08 18,0 C 17,2 C 100 % 1008,1 hPa 0,0 l/m 0 min 0 min 0,0 UV-I 67 W/m 10,5 km/h (2 Bft)
10.07.2014 08:10 18,0 C 17,2 C 100 % 1008,2 hPa 0,0 l/m 0 min 0 min 0,0 UV-I 58 W/m 8,4 km/h (2 Bft)
10.07.2014 08:12 18,0 C 17,2 C 100 % 1008,2 hPa 0,0 l/m 0 min 0 min 0,0 UV-I 47 W/m 14,6 km/h (3 Bft)
10.07.2014 08:14 18,1 C 17,2 C 100 % 1008,3 hPa 0,0 l/m 0 min 0 min 0,0 UV-I 47 W/m 14,6 km/h (3 Bft)
10.07.2014 08:16 18,1 C 17,2 C 100 % 1008,4 hPa 0,0 l/m 0 min 0 min 0,0 UV-I 51 W/m 14,6 km/h (3 Bft)
10.07.2014 08:18 18,1 C 17,2 C 100 % 1008,4 hPa 0,0 l/m 0 min 0 min 0,0 UV-I 51 W/m 8,4 km/h (2 Bft)
10.07.2014 08:20 18,1 C 17,2 C 100 % 1008,3 hPa 0,0 l/m 0 min 0 min 0,0 UV-I 56 W/m 10,5 km/h (2 Bft)
10.07.2014 08:22 18,1 C 17,2 C 100 % 1008,4 hPa 0,0 l/m 0 min 0 min 0,0 UV-I 65 W/m 0,0 km/h (0 Bft)
10.07.2014 08:24 18,1 C 17,2 C 100 % 1008,4 hPa 0,0 l/m 0 min 0 min 0,0 UV-I 72 W/m 2,1 km/h (1 Bft)
10.07.2014 08:26 18,1 C 17,2 C 100 % 1008,4 hPa 0,0 l/m 0 min 0 min 0,0 UV-I 86 W/m 6,3 km/h (2 Bft)
10.07.2014 08:28 18,2 C 17,2 C 100 % 1008,4 hPa 0,0 l/m 0 min 0 min 0,0 UV-I 107 W/m 6,3 km/h (2 Bft)
10.07.2014 08:30 18,2 C 17,8 C 100 % 1008,4 hPa 0,0 l/m 0 min 0 min 0,0 UV-I 95 W/m 8,4 km/h (2 Bft)
10.07.2014 08:32 18,2 C 17,8 C 100 % 1008,5 hPa 0,0 l/m 0 min 0 min 0,0 UV-I 74 W/m 8,4 km/h (2 Bft)
10.07.2014 08:34 18,2 C 17,8 C 100 % 1008,5 hPa 0,0 l/m 0 min 0 min 0,0 UV-I 54 W/m 2,1 km/h (1 Bft)
10.07.2014 08:36 18,3 C 17,2 C 100 % 1008,5 hPa 0,0 l/m 0 min 0 min 0,0 UV-I 44 W/m 0,0 km/h (0 Bft)
10.07.2014 08:38 18,3 C 17,2 C 100 % 1008,6 hPa 0,0 l/m 0 min 0 min 0,0 UV-I 40 W/m 0,0 km/h (0 Bft)
10.07.2014 08:40 18,2 C 17,2 C 100 % 1008,6 hPa 0,0 l/m 0 min 0 min 0,0 UV-I 62 W/m 0,0 km/h (0 Bft)
10.07.2014 08:42 18,2 C 17,2 C 100 % 1008,7 hPa 0,0 l/m 0 min 0 min 0,0 UV-I 49 W/m 2,1 km/h (1 Bft)
10.07.2014 08:44 18,2 C 17,2 C 100 % 1008,7 hPa 0,0 l/m 0 min 0 min 0,0 UV-I 33 W/m 0,0 km/h (0 Bft)
10.07.2014 08:46 18,1 C 16,7 C 100 % 1008,7 hPa 0,0 l/m 0 min 0 min 0,0 UV-I 26 W/m 2,1 km/h (1 Bft)
10.07.2014 08:48 18,1 C 16,7 C 100 % 1008,7 hPa 0,0 l/m 0 min 0 min 0,0 UV-I 28 W/m 0,0 km/h (0 Bft)
10.07.2014 08:50 18,1 C 16,7 C 100 % 1008,8 hPa 0,0 l/m 0 min 0 min 0,0 UV-I 28 W/m 0,0 km/h (0 Bft)
10.07.2014 08:52 18,0 C 16,7 C 100 % 1008,8 hPa 0,0 l/m 0 min 0 min 0,0 UV-I 28 W/m 0,0 km/h (0 Bft)
10.07.2014 08:54 18,0 C 16,7 C 100 % 1008,8 hPa 0,0 l/m 0 min 0 min 0,0 UV-I 28 W/m 0,0 km/h (0 Bft)
10.07.2014 08:56 17,9 C 16,7 C 100 % 1008,8 hPa 0,0 l/m 0 min 0 min 0,0 UV-I 30 W/m 0,0 km/h (0 Bft)
10.07.2014 08:58 17,9 C 16,7 C 100 % 1008,8 hPa 0,0 l/m 0 min 0 min 0,0 UV-I 40 W/m 0,0 km/h (0 Bft)
10.07.2014 09:00 17,9 C 16,7 C 100 % 1008,8 hPa 0,0 l/m 0 min 0 min 0,0 UV-I 39 W/m 0,0 km/h (0 Bft)
10.07.2014 09:02 17,9 C 16,7 C 100 % 1008,8 hPa 0,0 l/m 0 min 0 min 0,0 UV-I 40 W/m 0,0 km/h (0 Bft)
10.07.2014 09:04 17,9 C 16,7 C 100 % 1008,9 hPa 0,0 l/m 0 min 0 min 0,0 UV-I 49 W/m 2,1 km/h (1 Bft)
10.07.2014 09:06 17,9 C 16,7 C 100 % 1008,9 hPa 0,0 l/m 0 min 0 min 0,0 UV-I 56 W/m 0,0 km/h (0 Bft)
10.07.2014 09:08 17,9 C 16,7 C 100 % 1008,9 hPa 0,0 l/m 0 min 0 min 0,0 UV-I 44 W/m 0,0 km/h (0 Bft)
10.07.2014 09:10 17,8 C 16,7 C 100 % 1008,9 hPa 0,0 l/m 0 min 0 min 0,0 UV-I 46 W/m 0,0 km/h (0 Bft)
10.07.2014 09:12 17,8 C 16,7 C 100 % 1008,9 hPa 0,0 l/m 0 min 0 min 0,0 UV-I 63 W/m 0,0 km/h (0 Bft)
10.07.2014 09:14 17,8 C 16,7 C 100 % 1008,9 hPa 0,0 l/m 0 min 0 min 0,0 UV-I 74 W/m 0,0 km/h (0 Bft)
10.07.2014 09:16 17,8 C 16,7 C 100 % 1008,9 hPa 0,0 l/m 0 min 0 min 0,0 UV-I 72 W/m 4,2 km/h (1 Bft)
10.07.2014 09:18 17,8 C 16,7 C 100 % 1009,0 hPa 0,0 l/m 0 min 0 min 0,0 UV-I 79 W/m 6,3 km/h (2 Bft)
10.07.2014 09:20 17,8 C 16,7 C 100 % 1008,9 hPa 0,0 l/m 0 min 0 min 0,0 UV-I 91 W/m 6,3 km/h (2 Bft)
10.07.2014 09:22 17,8 C 17,2 C 100 % 1008,9 hPa 0,0 l/m 0 min 0 min 0,0 UV-I 109 W/m 2,1 km/h (1 Bft)
10.07.2014 09:24 17,8 C 17,2 C 100 % 1008,9 hPa 0,0 l/m 0 min 0 min 0,0 UV-I 105 W/m 2,1 km/h (1 Bft)
10.07.2014 09:26 17,8 C 17,2 C 100 % 1008,9 hPa 0,0 l/m 0 min 0 min 0,0 UV-I 98 W/m 0,0 km/h (0 Bft)
10.07.2014 09:28 17,8 C 17,2 C 100 % 1008,8 hPa 0,0 l/m 0 min 0 min 0,0 UV-I 104 W/m 0,0 km/h (0 Bft)
10.07.2014 09:30 17,8 C 17,2 C 100 % 1008,9 hPa 0,0 l/m 0 min 0 min 0,0 UV-I 97 W/m 0,0 km/h (0 Bft)
10.07.2014 09:32 17,8 C 17,2 C 100 % 1009,0 hPa 0,0 l/m 0 min 0 min 0,0 UV-I 81 W/m 0,0 km/h (0 Bft)
10.07.2014 09:34 17,8 C 17,2 C 100 % 1008,9 hPa 0,0 l/m 0 min 0 min 0,0 UV-I 81 W/m 0,0 km/h (0 Bft)
10.07.2014 09:36 17,8 C 17,2 C 100 % 1008,9 hPa 0,0 l/m 0 min 0 min 0,0 UV-I 100 W/m 0,0 km/h (0 Bft)
10.07.2014 09:38 17,9 C 17,2 C 100 % 1009,0 hPa 0,0 l/m 0 min 0 min 0,0 UV-I 111 W/m 0,0 km/h (0 Bft)
10.07.2014 09:40 17,9 C 17,2 C 100 % 1009,0 hPa 0,0 l/m 0 min 0 min 0,0 UV-I 135 W/m 0,0 km/h (0 Bft)
10.07.2014 09:42 17,9 C 17,2 C 100 % 1009,0 hPa 0,0 l/m 0 min 0 min 0,0 UV-I 167 W/m 0,0 km/h (0 Bft)
10.07.2014 09:44 17,9 C 17,8 C 100 % 1009,0 hPa 0,0 l/m 0 min 0 min 0,6 UV-I 269 W/m 0,0 km/h (0 Bft)
10.07.2014 09:46 18,1 C 17,8 C 100 % 1009,0 hPa 0,0 l/m 2 min 0 min 0,9 UV-I 311 W/m 0,0 km/h (0 Bft)
10.07.2014 09:48 18,2 C 18,3 C 100 % 1009,0 hPa 0,0 l/m 2 min 0 min 1,1 UV-I 364 W/m 0,0 km/h (0 Bft)
10.07.2014 09:50 18,2 C 18,3 C 100 % 1009,0 hPa 0,0 l/m 2 min 0 min 1,0 UV-I 346 W/m 0,0 km/h (0 Bft)
10.07.2014 09:52 18,2 C 18,9 C 100 % 1009,0 hPa 0,0 l/m 2 min 0 min 0,9 UV-I 311 W/m 0,0 km/h (0 Bft)
10.07.2014 09:54 18,4 C 18,9 C 100 % 1009,0 hPa 0,0 l/m 0 min 0 min 0,7 UV-I 258 W/m 6,3 km/h (2 Bft)
10.07.2014 09:56 18,5 C 18,9 C 100 % 1009,1 hPa 0,0 l/m 0 min 0 min 0,5 UV-I 216 W/m 4,2 km/h (1 Bft)
10.07.2014 09:58 18,5 C 18,9 C 100 % 1009,1 hPa 0,0 l/m 0 min 0 min 0,5 UV-I 197 W/m 0,0 km/h (0 Bft)
10.07.2014 10:00 18,6 C 18,9 C 100 % 1009,2 hPa 0,0 l/m 0 min 0 min 0,0 UV-I 195 W/m 0,0 km/h (0 Bft)
10.07.2014 10:02 18,6 C 18,9 C 100 % 1009,2 hPa 0,0 l/m 0 min 0 min 0,5 UV-I 232 W/m 2,1 km/h (1 Bft)
10.07.2014 10:04 18,6 C 18,9 C 100 % 1009,2 hPa 0,0 l/m 0 min 0 min 1,4 UV-I 290 W/m 0,0 km/h (0 Bft)
10.07.2014 10:06 18,7 C 18,9 C 100 % 1009,2 hPa 0,0 l/m 2 min 0 min 1,3 UV-I 374 W/m 2,1 km/h (1 Bft)
10.07.2014 10:08 19,1 C 19,4 C 100 % 1009,1 hPa 0,0 l/m 0 min 0 min 0,8 UV-I 262 W/m 0,0 km/h (0 Bft)
10.07.2014 10:10 19,2 C 19,4 C 100 % 1009,2 hPa 0,0 l/m 0 min 0 min 0,8 UV-I 248 W/m 0,0 km/h (0 Bft)
10.07.2014 10:12 19,2 C 19,4 C 100 % 1009,2 hPa 0,0 l/m 0 min 0 min 0,9 UV-I 276 W/m 0,0 km/h (0 Bft)
10.07.2014 10:14 19,0 C 19,4 C 100 % 1009,2 hPa 0,0 l/m 0 min 0 min 1,0 UV-I 283 W/m 0,0 km/h (0 Bft)
10.07.2014 10:16 19,1 C 19,4 C 100 % 1009,2 hPa 0,0 l/m 0 min 0 min 1,1 UV-I 290 W/m 0,0 km/h (0 Bft)
10.07.2014 10:18 19,2 C 19,4 C 100 % 1009,2 hPa 0,0 l/m 0 min 0 min 1,0 UV-I 257 W/m 4,2 km/h (1 Bft)
10.07.2014 10:20 19,4 C 19,4 C 100 % 1009,2 hPa 0,0 l/m 0 min 0 min 1,2 UV-I 311 W/m 6,3 km/h (2 Bft)
10.07.2014 10:22 19,4 C 19,4 C 100 % 1009,2 hPa 0,0 l/m 0 min 0 min 0,9 UV-I 279 W/m 8,4 km/h (2 Bft)
10.07.2014 10:24 19,4 C 19,4 C 100 % 1009,2 hPa 0,0 l/m 0 min 0 min 0,7 UV-I 220 W/m 8,4 km/h (2 Bft)
10.07.2014 10:26 19,4 C 19,4 C 100 % 1009,2 hPa 0,0 l/m 0 min 0 min 1,1 UV-I 257 W/m 8,4 km/h (2 Bft)
10.07.2014 10:28 19,3 C 19,4 C 100 % 1009,2 hPa 0,0 l/m 0 min 0 min 1,2 UV-I 297 W/m 8,4 km/h (2 Bft)
10.07.2014 10:30 19,5 C 19,4 C 100 % 1009,2 hPa 0,0 l/m 0 min 0 min 1,3 UV-I 294 W/m 10,5 km/h (2 Bft)
10.07.2014 10:32 19,5 C 19,4 C 100 % 1009,3 hPa 0,0 l/m 2 min 0 min 1,6 UV-I 482 W/m 10,5 km/h (2 Bft)
10.07.2014 10:34 19,6 C 19,4 C 100 % 1009,3 hPa 0,0 l/m 0 min 0 min 1,3 UV-I 232 W/m 12,6 km/h (3 Bft)
10.07.2014 10:36 19,6 C 19,4 C 100 % 1009,3 hPa 0,0 l/m 0 min 0 min 0,9 UV-I 185 W/m 10,5 km/h (2 Bft)
10.07.2014 10:38 19,6 C 19,4 C 100 % 1009,3 hPa 0,0 l/m 0 min 0 min 0,6 UV-I 185 W/m 8,4 km/h (2 Bft)
10.07.2014 10:40 19,6 C 19,4 C 100 % 1009,3 hPa 0,0 l/m 0 min 0 min 0,6 UV-I 172 W/m 10,5 km/h (2 Bft)
10.07.2014 10:42 19,6 C 19,4 C 100 % 1009,3 hPa 0,0 l/m 0 min 0 min 0,6 UV-I 153 W/m 10,5 km/h (2 Bft)
10.07.2014 10:44 19,6 C 18,9 C 100 % 1009,4 hPa 0,0 l/m 0 min 0 min 0,5 UV-I 134 W/m 12,6 km/h (3 Bft)
10.07.2014 10:46 19,6 C 18,9 C 100 % 1009,4 hPa 0,0 l/m 0 min 0 min 0,6 UV-I 128 W/m 8,4 km/h (2 Bft)
10.07.2014 10:48 19,6 C 18,9 C 100 % 1009,4 hPa 0,0 l/m 0 min 0 min 0,8 UV-I 169 W/m 0,0 km/h (0 Bft)
10.07.2014 10:50 19,7 C 18,9 C 100 % 1009,3 hPa 0,0 l/m 0 min 0 min 1,0 UV-I 193 W/m 10,5 km/h (2 Bft)
10.07.2014 10:52 19,6 C 18,9 C 100 % 1009,4 hPa 0,0 l/m 0 min 0 min 1,0 UV-I 195 W/m 8,4 km/h (2 Bft)
10.07.2014 10:54 19,7 C 19,4 C 100 % 1009,4 hPa 0,0 l/m 0 min 0 min 0,7 UV-I 139 W/m 12,6 km/h (3 Bft)
10.07.2014 10:56 19,6 C 18,9 C 100 % 1009,4 hPa 0,0 l/m 0 min 0 min 0,0 UV-I 114 W/m 8,4 km/h (2 Bft)
10.07.2014 10:58 19,7 C 18,9 C 99 % 1009,4 hPa 0,0 l/m 0 min 0 min 0,0 UV-I 130 W/m 8,4 km/h (2 Bft)
10.07.2014 11:00 19,7 C 18,9 C 100 % 1009,4 hPa 0,0 l/m 0 min 0 min 0,0 UV-I 127 W/m 10,5 km/h (2 Bft)
10.07.2014 11:02 19,7 C 18,9 C 99 % 1009,4 hPa 0,0 l/m 0 min 0 min 0,0 UV-I 146 W/m 10,5 km/h (2 Bft)
10.07.2014 11:04 19,7 C 18,9 C 99 % 1009,5 hPa 0,0 l/m 0 min 0 min 0,7 UV-I 174 W/m 14,6 km/h (3 Bft)
10.07.2014 11:06 19,7 C 19,4 C 99 % 1009,4 hPa 0,0 l/m 0 min 0 min 1,1 UV-I 262 W/m 10,5 km/h (2 Bft)
10.07.2014 11:08 19,8 C 19,4 C 99 % 1009,4 hPa 0,0 l/m 0 min 0 min 1,4 UV-I 288 W/m 12,6 km/h (3 Bft)
10.07.2014 11:10 19,8 C 19,4 C 99 % 1009,4 hPa 0,0 l/m 0 min 0 min 1,7 UV-I 308 W/m 14,6 km/h (3 Bft)
10.07.2014 11:12 19,9 C 20,0 C 98 % 1009,4 hPa 0,0 l/m 0 min 0 min 2,0 UV-I 359 W/m 10,5 km/h (2 Bft)
10.07.2014 11:14 20,1 C 20,0 C 98 % 1009,5 hPa 0,0 l/m 2 min 0 min 2,7 UV-I 455 W/m 6,3 km/h (2 Bft)
10.07.2014 11:16 20,4 C 20,6 C 98 % 1009,5 hPa 0,0 l/m 2 min 0 min 2,6 UV-I 424 W/m 10,5 km/h (2 Bft)
10.07.2014 11:18 20,5 C 20,6 C 98 % 1009,5 hPa 0,0 l/m 0 min 0 min 1,3 UV-I 236 W/m 8,4 km/h (2 Bft)
10.07.2014 11:20 20,6 C 20,6 C 98 % 1009,5 hPa 0,0 l/m 0 min 0 min 0,8 UV-I 183 W/m 0,0 km/h (0 Bft)
10.07.2014 11:22 20,6 C 20,6 C 97 % 1009,5 hPa 0,0 l/m 0 min 0 min 0,0 UV-I 130 W/m 8,4 km/h (2 Bft)
10.07.2014 11:24 20,6 C 20,0 C 97 % 1009,5 hPa 0,0 l/m 0 min 0 min 0,5 UV-I 151 W/m 10,5 km/h (2 Bft)
10.07.2014 11:26 20,6 C 20,0 C 97 % 1009,5 hPa 0,0 l/m 0 min 0 min 1,1 UV-I 236 W/m 12,6 km/h (3 Bft)
10.07.2014 11:28 20,5 C 20,0 C 96 % 1009,5 hPa 0,0 l/m 0 min 0 min 1,5 UV-I 304 W/m 16,7 km/h (3 Bft)
10.07.2014 11:30 20,5 C 20,0 C 96 % 1009,6 hPa 0,0 l/m 0 min 0 min 1,3 UV-I 267 W/m 12,6 km/h (3 Bft)
10.07.2014 11:32 20,6 C 20,0 C 96 % 1009,6 hPa 0,0 l/m 0 min 0 min 1,3 UV-I 274 W/m 14,6 km/h (3 Bft)
10.07.2014 11:34 20,6 C 20,6 C 95 % 1009,6 hPa 0,0 l/m 0 min 0 min 1,4 UV-I 269 W/m 12,6 km/h (3 Bft)
10.07.2014 11:36 20,6 C 20,6 C 95 % 1009,6 hPa 0,0 l/m 0 min 0 min 1,7 UV-I 267 W/m 10,5 km/h (2 Bft)
10.07.2014 11:38 20,7 C 20,6 C 95 % 1009,6 hPa 0,0 l/m 0 min 0 min 2,2 UV-I 334 W/m 10,5 km/h (2 Bft)
10.07.2014 11:40 20,8 C 21,1 C 95 % 1009,5 hPa 0,0 l/m 2 min 0 min 2,7 UV-I 439 W/m 2,1 km/h (1 Bft)
10.07.2014 11:42 21,0 C 21,1 C 95 % 1009,6 hPa 0,0 l/m 2 min 0 min 2,7 UV-I 473 W/m 8,4 km/h (2 Bft)
10.07.2014 11:44 21,1 C 21,1 C 95 % 1009,6 hPa 0,0 l/m 0 min 0 min 2,2 UV-I 360 W/m 10,5 km/h (2 Bft)
10.07.2014 11:46 21,2 C 21,7 C 94 % 1009,5 hPa 0,0 l/m 2 min 0 min 2,2 UV-I 390 W/m 16,7 km/h (3 Bft)
10.07.2014 11:48 21,2 C 21,7 C 93 % 1009,6 hPa 0,0 l/m 0 min 0 min 2,1 UV-I 383 W/m 16,7 km/h (3 Bft)
10.07.2014 11:50 21,2 C 21,1 C 93 % 1009,6 hPa 0,0 l/m 2 min 0 min 2,4 UV-I 417 W/m 16,7 km/h (3 Bft)
10.07.2014 11:52 21,2 C 21,7 C 93 % 1009,5 hPa 0,0 l/m 2 min 0 min 2,3 UV-I 399 W/m 12,6 km/h (3 Bft)
10.07.2014 11:54 21,3 C 21,7 C 93 % 1009,6 hPa 0,0 l/m 2 min 0 min 2,3 UV-I 403 W/m 12,6 km/h (3 Bft)
10.07.2014 11:56 21,4 C 21,7 C 93 % 1009,5 hPa 0,0 l/m 2 min 0 min 2,8 UV-I 471 W/m 18,8 km/h (3 Bft)
10.07.2014 11:58 21,4 C 21,7 C 92 % 1009,5 hPa 0,0 l/m 0 min 0 min 2,2 UV-I 327 W/m 14,6 km/h (3 Bft)
10.07.2014 12:00 21,3 C 21,1 C 92 % 1009,6 hPa 0,0 l/m 0 min 0 min 2,6 UV-I 362 W/m 12,6 km/h (3 Bft)
10.07.2014 12:02 21,2 C 21,7 C 91 % 1009,6 hPa 0,0 l/m 0 min 0 min 3,2 UV-I 362 W/m 16,7 km/h (3 Bft)
10.07.2014 12:06 21,3 C 21,7 C 91 % 1009,6 hPa 0,0 l/m 0 min 0 min 2,2 UV-I 329 W/m 14,6 km/h (3 Bft)
10.07.2014 12:08 21,2 C 21,1 C 91 % 1009,6 hPa 0,0 l/m 0 min 0 min 1,8 UV-I 279 W/m 14,6 km/h (3 Bft)
10.07.2014 12:10 21,3 C 21,1 C 91 % 1009,6 hPa 0,0 l/m 0 min 0 min 1,7 UV-I 264 W/m 12,6 km/h (3 Bft)
10.07.2014 12:12 21,3 C 21,1 C 91 % 1009,6 hPa 0,0 l/m 0 min 0 min 1,9 UV-I 281 W/m 12,6 km/h (3 Bft)
10.07.2014 12:14 21,3 C 21,1 C 91 % 1009,7 hPa 0,0 l/m 0 min 0 min 2,2 UV-I 334 W/m 16,7 km/h (3 Bft)
10.07.2014 12:16 21,3 C 21,7 C 91 % 1009,7 hPa 0,0 l/m 2 min 0 min 2,5 UV-I 427 W/m 12,6 km/h (3 Bft)
10.07.2014 12:18 21,4 C 21,7 C 91 % 1009,7 hPa 0,0 l/m 0 min 0 min 1,8 UV-I 334 W/m 6,3 km/h (2 Bft)
10.07.2014 12:20 21,6 C 21,7 C 91 % 1009,6 hPa 0,0 l/m 0 min 0 min 1,4 UV-I 269 W/m 4,2 km/h (1 Bft)
10.07.2014 12:22 21,7 C 21,7 C 92 % 1009,6 hPa 0,0 l/m 0 min 0 min 1,4 UV-I 250 W/m 20,9 km/h (4 Bft)
10.07.2014 12:24 21,8 C 21,7 C 91 % 1009,7 hPa 0,0 l/m 0 min 0 min 2,2 UV-I 316 W/m 18,8 km/h (3 Bft)
10.07.2014 12:26 21,7 C 21,7 C 90 % 1009,7 hPa 0,0 l/m 2 min 0 min 2,9 UV-I 406 W/m 14,6 km/h (3 Bft)
10.07.2014 12:28 21,7 C 22,8 C 89 % 1009,7 hPa 0,0 l/m 2 min 0 min 4,2 UV-I 531 W/m 10,5 km/h (2 Bft)
10.07.2014 12:30 21,8 C 22,8 C 89 % 1009,7 hPa 0,0 l/m 2 min 0 min 3,5 UV-I 490 W/m 10,5 km/h (2 Bft)
10.07.2014 12:32 21,9 C 22,8 C 88 % 1009,7 hPa 0,0 l/m 2 min 0 min 3,8 UV-I 563 W/m 16,7 km/h (3 Bft)
10.07.2014 12:34 22,1 C 23,3 C 89 % 1009,7 hPa 0,0 l/m 2 min 0 min 4,6 UV-I 701 W/m 14,6 km/h (3 Bft)
10.07.2014 12:36 22,3 C 24,4 C 89 % 1009,7 hPa 0,0 l/m 2 min 0 min 5,0 UV-I 912 W/m 14,6 km/h (3 Bft)
10.07.2014 12:38 22,5 C 24,4 C 88 % 1009,7 hPa 0,0 l/m 2 min 0 min 4,2 UV-I 912 W/m 14,6 km/h (3 Bft)
10.07.2014 12:40 22,5 C 24,4 C 87 % 1009,7 hPa 0,0 l/m 2 min 0 min 4,3 UV-I 649 W/m 14,6 km/h (3 Bft)
10.07.2014 12:42 22,5 C 24,4 C 86 % 1009,8 hPa 0,0 l/m 2 min 0 min 4,8 UV-I 867 W/m 12,6 km/h (3 Bft)
10.07.2014 12:44 22,6 C 24,4 C 86 % 1009,8 hPa 0,0 l/m 2 min 0 min 3,8 UV-I 937 W/m 10,5 km/h (2 Bft)
10.07.2014 12:46 22,8 C 24,4 C 87 % 1009,8 hPa 0,0 l/m 2 min 0 min 3,9 UV-I 492 W/m 10,5 km/h (2 Bft)
10.07.2014 12:48 23,1 C 25,0 C 87 % 1009,8 hPa 0,0 l/m 2 min 0 min 3,8 UV-I 895 W/m 10,5 km/h (2 Bft)
10.07.2014 12:50 23,1 C 25,0 C 86 % 1009,7 hPa 0,0 l/m 2 min 0 min 3,7 UV-I 513 W/m 8,4 km/h (2 Bft)
10.07.2014 12:52 23,0 C 25,0 C 85 % 1009,8 hPa 0,0 l/m 2 min 0 min 4,1 UV-I 926 W/m 12,6 km/h (3 Bft)
10.07.2014 12:54 22,9 C 24,4 C 85 % 1009,7 hPa 0,0 l/m 2 min 0 min 3,3 UV-I 445 W/m 10,5 km/h (2 Bft)
10.07.2014 12:56 23,1 C 24,4 C 87 % 1009,8 hPa 0,0 l/m 2 min 0 min 2,9 UV-I 418 W/m 0,0 km/h (0 Bft)
10.07.2014 12:58 23,1 C 23,9 C 86 % 1009,8 hPa 0,0 l/m 0 min 0 min 2,8 UV-I 381 W/m 10,5 km/h (2 Bft)
10.07.2014 13:00 22,9 C 23,3 C 85 % 1009,8 hPa 0,0 l/m 0 min 0 min 2,7 UV-I 380 W/m 14,6 km/h (3 Bft)
10.07.2014 13:02 22,8 C 23,3 C 85 % 1009,7 hPa 0,0 l/m 0 min 0 min 2,9 UV-I 360 W/m 12,6 km/h (3 Bft)
10.07.2014 13:04 22,7 C 23,9 C 85 % 1009,8 hPa 0,0 l/m 2 min 0 min 4,7 UV-I 686 W/m 12,6 km/h (3 Bft)
10.07.2014 13:06 22,8 C 23,9 C 85 % 1009,8 hPa 0,0 l/m 2 min 0 min 4,8 UV-I 877 W/m 10,5 km/h (2 Bft)
10.07.2014 13:08 23,1 C 23,9 C 85 % 1009,8 hPa 0,0 l/m 2 min 0 min 3,6 UV-I 849 W/m 8,4 km/h (2 Bft)
10.07.2014 13:10 23,1 C 23,9 C 84 % 1009,8 hPa 0,0 l/m 2 min 0 min 5,0 UV-I 849 W/m 8,4 km/h (2 Bft)
10.07.2014 13:12 23,4 C 24,4 C 86 % 1009,8 hPa 0,0 l/m 2 min 0 min 3,4 UV-I 849 W/m 2,1 km/h (1 Bft)
10.07.2014 13:14 23,4 C 24,4 C 83 % 1009,8 hPa 0,0 l/m 0 min 0 min 5,0 UV-I 352 W/m 8,4 km/h (2 Bft)
10.07.2014 13:16 23,7 C 25,0 C 86 % 1009,8 hPa 0,0 l/m 0 min 0 min 2,9 UV-I 352 W/m 6,3 km/h (2 Bft)
10.07.2014 13:18 23,8 C 24,4 C 83 % 1009,8 hPa 0,0 l/m 0 min 0 min 2,2 UV-I 323 W/m 10,5 km/h (2 Bft)
10.07.2014 13:20 23,5 C 23,9 C 81 % 1009,8 hPa 0,0 l/m 0 min 0 min 1,9 UV-I 267 W/m 0,0 km/h (0 Bft)
10.07.2014 13:22 23,4 C 23,9 C 83 % 1009,8 hPa 0,0 l/m 0 min 0 min 1,8 UV-I 250 W/m 6,3 km/h (2 Bft)
10.07.2014 13:24 23,3 C 23,3 C 84 % 1009,8 hPa 0,0 l/m 0 min 0 min 1,7 UV-I 239 W/m 10,5 km/h (2 Bft)
10.07.2014 13:26 23,2 C 23,3 C 83 % 1009,9 hPa 0,0 l/m 0 min 0 min 1,8 UV-I 243 W/m 10,5 km/h (2 Bft)
10.07.2014 13:28 23,2 C 22,8 C 83 % 1009,8 hPa 0,0 l/m 0 min 0 min 2,4 UV-I 278 W/m 10,5 km/h (2 Bft)
10.07.2014 13:30 23,1 C 23,3 C 84 % 1009,8 hPa 0,0 l/m 0 min 0 min 3,4 UV-I 327 W/m 2,1 km/h (1 Bft)
10.07.2014 13:32 23,2 C 23,3 C 85 % 1009,9 hPa 0,0 l/m 2 min 0 min 3,1 UV-I 424 W/m 0,0 km/h (0 Bft)
10.07.2014 13:34 23,1 C 23,3 C 83 % 1009,9 hPa 0,0 l/m 0 min 0 min 2,8 UV-I 355 W/m 0,0 km/h (0 Bft)
10.07.2014 13:36 23,0 C 23,3 C 83 % 1009,9 hPa 0,0 l/m 0 min 0 min 3,1 UV-I 359 W/m 0,0 km/h (0 Bft)
10.07.2014 13:38 23,1 C 23,3 C 83 % 1009,9 hPa 0,0 l/m 0 min 0 min 3,9 UV-I 359 W/m 2,1 km/h (1 Bft)
10.07.2014 13:40 23,4 C 23,3 C 84 % 1009,9 hPa 0,0 l/m 2 min 0 min 4,7 UV-I 835 W/m 0,0 km/h (0 Bft)
10.07.2014 13:42 23,9 C 23,9 C 85 % 1009,9 hPa 0,0 l/m 2 min 0 min 4,4 UV-I 598 W/m 0,0 km/h (0 Bft)
10.07.2014 13:44 24,1 C 23,9 C 81 % 1009,9 hPa 0,0 l/m 0 min 0 min 2,8 UV-I 292 W/m 12,6 km/h (3 Bft)
10.07.2014 13:46 24,0 C 23,9 C 81 % 1009,9 hPa 0,0 l/m 0 min 0 min 3,4 UV-I 332 W/m 6,3 km/h (2 Bft)
10.07.2014 13:48 23,8 C 23,9 C 80 % 1009,9 hPa 0,0 l/m 2 min 0 min 5,0 UV-I 805 W/m 0,0 km/h (0 Bft)
10.07.2014 13:50 24,1 C 23,9 C 80 % 1009,9 hPa 0,0 l/m 2 min 0 min 5,0 UV-I 817 W/m 0,0 km/h (0 Bft)
10.07.2014 13:52 24,2 C 23,9 C 78 % 1009,8 hPa 0,0 l/m 2 min 0 min 5,1 UV-I 814 W/m 2,1 km/h (1 Bft)
10.07.2014 13:54 24,4 C 23,9 C 78 % 1009,9 hPa 0,0 l/m 2 min 0 min 5,0 UV-I 798 W/m 0,0 km/h (0 Bft)
10.07.2014 13:56 24,6 C 24,4 C 77 % 1009,9 hPa 0,0 l/m 2 min 0 min 5,1 UV-I 835 W/m 8,4 km/h (2 Bft)
10.07.2014 13:58 24,7 C 24,4 C 75 % 1009,9 hPa 0,0 l/m 2 min 0 min 5,2 UV-I 870 W/m 8,4 km/h (2 Bft)
10.07.2014 14:00 24,8 C 24,4 C 75 % 1009,9 hPa 0,0 l/m 2 min 0 min 5,1 UV-I 893 W/m 2,1 km/h (1 Bft)
10.07.2014 14:02 24,7 C 24,4 C 76 % 1009,9 hPa 0,0 l/m 2 min 0 min 4,9 UV-I 912 W/m 8,4 km/h (2 Bft)
10.07.2014 14:04 24,6 C 25,0 C 78 % 1009,9 hPa 0,0 l/m 2 min 0 min 4,4 UV-I 884 W/m 8,4 km/h (2 Bft)
10.07.2014 14:06 24,7 C 25,0 C 79 % 1009,9 hPa 0,0 l/m 0 min 0 min 2,7 UV-I 378 W/m 20,9 km/h (4 Bft)
10.07.2014 14:08 24,6 C 24,4 C 78 % 1009,9 hPa 0,0 l/m 0 min 0 min 2,3 UV-I 304 W/m 18,8 km/h (3 Bft)
10.07.2014 14:10 24,3 C 23,9 C 78 % 1009,9 hPa 0,0 l/m 0 min 0 min 2,1 UV-I 272 W/m 12,6 km/h (3 Bft)
10.07.2014 14:12 24,1 C 23,3 C 79 % 1010,0 hPa 0,0 l/m 0 min 0 min 2,1 UV-I 269 W/m 12,6 km/h (3 Bft)
10.07.2014 14:14 24,1 C 23,3 C 82 % 1009,9 hPa 0,0 l/m 0 min 0 min 2,2 UV-I 295 W/m 12,6 km/h (3 Bft)
10.07.2014 14:16 24,0 C 23,3 C 81 % 1009,9 hPa 0,0 l/m 0 min 0 min 2,7 UV-I 360 W/m 8,4 km/h (2 Bft)
10.07.2014 14:18 24,0 C 23,9 C 81 % 1010,0 hPa 0,0 l/m 0 min 0 min 4,1 UV-I 413 W/m 10,5 km/h (2 Bft)
10.07.2014 14:20 24,0 C 23,9 C 80 % 1009,9 hPa 0,0 l/m 0 min 0 min 2,6 UV-I 336 W/m 10,5 km/h (2 Bft)
10.07.2014 14:22 24,0 C 23,9 C 80 % 1010,0 hPa 0,0 l/m 0 min 0 min 2,7 UV-I 339 W/m 8,4 km/h (2 Bft)
10.07.2014 14:24 23,9 C 23,9 C 80 % 1010,0 hPa 0,0 l/m 0 min 0 min 2,8 UV-I 323 W/m 8,4 km/h (2 Bft)
10.07.2014 14:26 23,9 C 23,9 C 80 % 1010,0 hPa 0,0 l/m 0 min 0 min 3,7 UV-I 311 W/m 8,4 km/h (2 Bft)
10.07.2014 14:28 24,1 C 23,9 C 83 % 1009,9 hPa 0,0 l/m 2 min 0 min 4,5 UV-I 805 W/m 10,5 km/h (2 Bft)
10.07.2014 14:30 24,4 C 24,4 C 82 % 1009,9 hPa 0,0 l/m 2 min 0 min 3,7 UV-I 796 W/m 0,0 km/h (0 Bft)
10.07.2014 14:32 24,6 C 24,4 C 82 % 1009,9 hPa 0,0 l/m 2 min 0 min 4,3 UV-I 487 W/m 0,0 km/h (0 Bft)
10.07.2014 14:34 24,7 C 24,4 C 81 % 1009,9 hPa 0,0 l/m 2 min 0 min 4,8 UV-I 833 W/m 8,4 km/h (2 Bft)
10.07.2014 14:36 24,9 C 24,4 C 80 % 1009,9 hPa 0,0 l/m 2 min 0 min 4,7 UV-I 830 W/m 2,1 km/h (1 Bft)
10.07.2014 14:38 25,2 C 25,0 C 78 % 1009,9 hPa 0,0 l/m 2 min 0 min 4,4 UV-I 793 W/m 10,5 km/h (2 Bft)
10.07.2014 14:40 25,1 C 24,4 C 76 % 1009,8 hPa 0,0 l/m 2 min 0 min 3,1 UV-I 793 W/m 8,4 km/h (2 Bft)
10.07.2014 14:42 24,9 C 24,4 C 76 % 1009,9 hPa 0,0 l/m 0 min 0 min 2,7 UV-I 304 W/m 6,3 km/h (2 Bft)
10.07.2014 14:44 24,8 C 24,4 C 77 % 1009,9 hPa 0,0 l/m 0 min 0 min 2,7 UV-I 306 W/m 2,1 km/h (1 Bft)
10.07.2014 14:46 24,7 C 24,4 C 77 % 1009,9 hPa 0,0 l/m 0 min 0 min 2,6 UV-I 294 W/m 2,1 km/h (1 Bft)
10.07.2014 14:48 24,6 C 23,9 C 77 % 1009,9 hPa 0,0 l/m 0 min 0 min 2,5 UV-I 287 W/m 2,1 km/h (1 Bft)
10.07.2014 14:50 24,6 C 23,9 C 79 % 1009,9 hPa 0,0 l/m 0 min 0 min 2,7 UV-I 353 W/m 8,4 km/h (2 Bft)
10.07.2014 14:52 24,6 C 23,9 C 78 % 1009,8 hPa 0,0 l/m 0 min 0 min 2,8 UV-I 308 W/m 8,4 km/h (2 Bft)
10.07.2014 14:54 24,7 C 24,4 C 79 % 1009,8 hPa 0,0 l/m 2 min 0 min 4,3 UV-I 851 W/m 8,4 km/h (2 Bft)
10.07.2014 14:56 25,0 C 25,0 C 78 % 1009,8 hPa 0,0 l/m 2 min 0 min 4,4 UV-I 847 W/m 10,5 km/h (2 Bft)
10.07.2014 14:58 25,3 C 25,6 C 78 % 1009,8 hPa 0,0 l/m 2 min 0 min 4,4 UV-I 886 W/m 6,3 km/h (2 Bft)
10.07.2014 15:00 25,6 C 25,6 C 76 % 1009,8 hPa 0,0 l/m 2 min 0 min 4,2 UV-I 882 W/m 2,1 km/h (1 Bft)
10.07.2014 15:02 26,0 C 26,1 C 76 % 1009,8 hPa 0,0 l/m 2 min 0 min 3,9 UV-I 882 W/m 10,5 km/h (2 Bft)
10.07.2014 15:04 25,9 C 26,1 C 75 % 1009,8 hPa 0,0 l/m 2 min 0 min 3,3 UV-I 798 W/m 14,6 km/h (3 Bft)
10.07.2014 15:06 25,8 C 25,6 C 74 % 1009,9 hPa 0,0 l/m 0 min 0 min 2,2 UV-I 290 W/m 14,6 km/h (3 Bft)
10.07.2014 15:08 25,4 C 25,0 C 76 % 1009,8 hPa 0,0 l/m 0 min 0 min 2,2 UV-I 316 W/m 12,6 km/h (3 Bft)
10.07.2014 15:10 25,2 C 25,0 C 76 % 1009,8 hPa 0,0 l/m 0 min 0 min 2,2 UV-I 285 W/m 10,5 km/h (2 Bft)
10.07.2014 15:12 25,0 C 24,4 C 78 % 1009,8 hPa 0,0 l/m 0 min 0 min 2,2 UV-I 260 W/m 6,3 km/h (2 Bft)
10.07.2014 15:14 25,0 C 24,4 C 78 % 1009,9 hPa 0,0 l/m 0 min 0 min 2,4 UV-I 304 W/m 8,4 km/h (2 Bft)
10.07.2014 15:16 24,9 C 24,4 C 77 % 1009,9 hPa 0,0 l/m 0 min 0 min 2,5 UV-I 336 W/m 14,6 km/h (3 Bft)
10.07.2014 15:18 24,8 C 24,4 C 78 % 1009,9 hPa 0,0 l/m 0 min 0 min 2,8 UV-I 329 W/m 14,6 km/h (3 Bft)
10.07.2014 15:20 24,7 C 24,4 C 78 % 1010,0 hPa 0,0 l/m 0 min 0 min 2,8 UV-I 341 W/m 10,5 km/h (2 Bft)
10.07.2014 15:22 24,8 C 24,4 C 78 % 1009,9 hPa 0,0 l/m 2 min 0 min 4,0 UV-I 798 W/m 10,5 km/h (2 Bft)
10.07.2014 15:24 25,1 C 25,0 C 79 % 1010,0 hPa 0,0 l/m 2 min 0 min 3,9 UV-I 765 W/m 6,3 km/h (2 Bft)
10.07.2014 15:26 25,6 C 25,0 C 78 % 1009,9 hPa 0,0 l/m 2 min 0 min 3,9 UV-I 773 W/m 2,1 km/h (1 Bft)
10.07.2014 15:28 26,0 C 25,6 C 77 % 1010,0 hPa 0,0 l/m 2 min 0 min 3,8 UV-I 737 W/m 8,4 km/h (2 Bft)
10.07.2014 15:30 26,2 C 25,6 C 77 % 1010,0 hPa 0,0 l/m 2 min 0 min 3,6 UV-I 724 W/m 10,5 km/h (2 Bft)
10.07.2014 15:32 26,2 C 25,6 C 76 % 1010,0 hPa 0,0 l/m 2 min 0 min 3,7 UV-I 717 W/m 12,6 km/h (3 Bft)
10.07.2014 15:34 26,4 C 26,1 C 76 % 1010,0 hPa 0,0 l/m 2 min 0 min 3,7 UV-I 765 W/m 10,5 km/h (2 Bft)
10.07.2014 15:36 26,2 C 25,6 C 74 % 1010,0 hPa 0,0 l/m 2 min 0 min 3,8 UV-I 765 W/m 14,6 km/h (3 Bft)
10.07.2014 15:38 26,1 C 25,6 C 72 % 1010,0 hPa 0,0 l/m 2 min 0 min 3,7 UV-I 816 W/m 23,0 km/h (4 Bft)
10.07.2014 15:40 25,8 C 25,6 C 75 % 1010,0 hPa 0,0 l/m 2 min 0 min 2,5 UV-I 793 W/m 10,5 km/h (2 Bft)
10.07.2014 15:42 25,6 C 25,6 C 73 % 1010,0 hPa 0,0 l/m 0 min 0 min 2,0 UV-I 304 W/m 0,0 km/h (0 Bft)
10.07.2014 15:44 25,4 C 25,0 C 73 % 1010,0 hPa 0,0 l/m 0 min 0 min 1,8 UV-I 285 W/m 2,1 km/h (1 Bft)
10.07.2014 15:46 25,3 C 25,0 C 76 % 1010,0 hPa 0,0 l/m 0 min 0 min 1,6 UV-I 272 W/m 2,1 km/h (1 Bft)
10.07.2014 15:48 25,1 C 24,4 C 74 % 1010,1 hPa 0,0 l/m 0 min 0 min 1,5 UV-I 255 W/m 2,1 km/h (1 Bft)
10.07.2014 15:50 25,1 C 24,4 C 75 % 1010,0 hPa 0,0 l/m 0 min 0 min 1,5 UV-I 251 W/m 0,0 km/h (0 Bft)
10.07.2014 15:52 25,1 C 24,4 C 76 % 1010,0 hPa 0,0 l/m 0 min 0 min 1,5 UV-I 248 W/m 8,4 km/h (2 Bft)
10.07.2014 15:54 25,1 C 24,4 C 76 % 1010,0 hPa 0,0 l/m 0 min 0 min 1,9 UV-I 322 W/m 12,6 km/h (3 Bft)
10.07.2014 15:56 25,3 C 25,0 C 77 % 1010,0 hPa 0,0 l/m 0 min 0 min 2,1 UV-I 322 W/m 8,4 km/h (2 Bft)
10.07.2014 15:58 25,4 C 26,7 C 76 % 1010,0 hPa 0,0 l/m 2 min 0 min 3,1 UV-I 747 W/m 12,6 km/h (3 Bft)
10.07.2014 16:00 25,4 C 27,8 C 73 % 1010,0 hPa 0,0 l/m 2 min 0 min 3,1 UV-I 700 W/m 10,5 km/h (2 Bft)
10.07.2014 16:02 25,4 C 27,8 C 73 % 1010,0 hPa 0,0 l/m 2 min 0 min 3,1 UV-I 684 W/m 10,5 km/h (2 Bft)
10.07.2014 16:04 25,4 C 27,8 C 71 % 1010,0 hPa 0,0 l/m 2 min 0 min 3,1 UV-I 675 W/m 10,5 km/h (2 Bft)
10.07.2014 16:06 25,4 C 28,3 C 71 % 1009,9 hPa 0,0 l/m 2 min 0 min 3,0 UV-I 640 W/m 2,1 km/h (1 Bft)
10.07.2014 16:08 25,6 C 27,8 C 71 % 1010,0 hPa 0,0 l/m 2 min 0 min 3,0 UV-I 636 W/m 10,5 km/h (2 Bft)
10.07.2014 16:10 25,8 C 27,8 C 72 % 1009,9 hPa 0,0 l/m 2 min 0 min 3,1 UV-I 656 W/m 8,4 km/h (2 Bft)
10.07.2014 16:12 26,0 C 26,7 C 71 % 1009,9 hPa 0,0 l/m 2 min 0 min 3,0 UV-I 657 W/m 12,6 km/h (3 Bft)
10.07.2014 16:14 26,2 C 26,7 C 73 % 1009,9 hPa 0,0 l/m 2 min 0 min 3,0 UV-I 661 W/m 10,5 km/h (2 Bft)
10.07.2014 16:16 26,3 C 26,1 C 72 % 1009,9 hPa 0,0 l/m 2 min 0 min 3,0 UV-I 663 W/m 6,3 km/h (2 Bft)
10.07.2014 16:18 26,4 C 26,1 C 74 % 1009,9 hPa 0,0 l/m 2 min 0 min 2,9 UV-I 647 W/m 10,5 km/h (2 Bft)
10.07.2014 16:20 26,6 C 26,1 C 74 % 1009,9 hPa 0,0 l/m 2 min 0 min 2,9 UV-I 647 W/m 10,5 km/h (2 Bft)
10.07.2014 16:22 26,8 C 26,1 C 71 % 1009,8 hPa 0,0 l/m 2 min 0 min 2,8 UV-I 642 W/m 12,6 km/h (3 Bft)
10.07.2014 16:24 26,7 C 25,6 C 72 % 1009,8 hPa 0,0 l/m 2 min 0 min 2,8 UV-I 649 W/m 14,6 km/h (3 Bft)
10.07.2014 16:26 26,7 C 26,1 C 70 % 1009,9 hPa 0,0 l/m 2 min 0 min 2,7 UV-I 656 W/m 14,6 km/h (3 Bft)
10.07.2014 16:27 26,5 C 25,6 C 71 % 1009,8 hPa 0,0 l/m 0 min 0 min 2,1 UV-I 264 W/m 10,5 km/h (2 Bft)
10.07.2014 16:28 26,4 C 25,6 C 72 % 1009,9 hPa 0,0 l/m 0 min 0 min 1,9 UV-I 251 W/m 10,5 km/h (2 Bft)
10.07.2014 16:29 26,3 C 25,6 C 72 % 1009,9 hPa 0,0 l/m 0 min 0 min 1,8 UV-I 250 W/m 16,7 km/h (3 Bft)
10.07.2014 16:30 26,2 C 25,6 C 72 % 1009,9 hPa 0,0 l/m 0 min 0 min 1,8 UV-I 258 W/m 10,5 km/h (2 Bft)
10.07.2014 16:31 26,1 C 25,0 C 72 % 1009,9 hPa 0,0 l/m 0 min 0 min 1,8 UV-I 283 W/m 10,5 km/h (2 Bft)
10.07.2014 16:32 25,9 C 25,0 C 72 % 1010,0 hPa 0,0 l/m 0 min 0 min 2,3 UV-I 283 W/m 14,6 km/h (3 Bft)
10.07.2014 16:33 25,9 C 25,0 C 72 % 1009,9 hPa 0,0 l/m 1 min 0 min 2,3 UV-I 585 W/m 12,6 km/h (3 Bft)
10.07.2014 16:34 25,8 C 25,0 C 72 % 1010,0 hPa 0,0 l/m 1 min 0 min 2,4 UV-I 506 W/m 8,4 km/h (2 Bft)
10.07.2014 16:35 25,7 C 25,0 C 72 % 1010,0 hPa 0,0 l/m 1 min 0 min 2,2 UV-I 540 W/m 10,5 km/h (2 Bft)
10.07.2014 16:36 25,7 C 25,0 C 73 % 1010,0 hPa 0,0 l/m 1 min 0 min 2,3 UV-I 524 W/m 8,4 km/h (2 Bft)
10.07.2014 16:37 25,8 C 25,6 C 73 % 1010,0 hPa 0,0 l/m 1 min 0 min 2,4 UV-I 606 W/m 8,4 km/h (2 Bft)
10.07.2014 16:38 25,9 C 25,6 C 74 % 1010,0 hPa 0,0 l/m 1 min 0 min 2,4 UV-I 617 W/m 10,5 km/h (2 Bft)
10.07.2014 16:39 26,2 C 25,6 C 75 % 1010,0 hPa 0,0 l/m 1 min 0 min 2,4 UV-I 598 W/m 10,5 km/h (2 Bft)
10.07.2014 16:46 26,7 C 26,1 C 70 % 1010,0 hPa 0,0 l/m 2 min 0 min 2,3 UV-I 629 W/m 8,4 km/h (2 Bft)
10.07.2014 16:48 26,8 C 26,1 C 71 % 1010,0 hPa 0,0 l/m 2 min 0 min 2,3 UV-I 650 W/m 8,4 km/h (2 Bft)
10.07.2014 16:50 27,0 C 26,1 C 73 % 1010,0 hPa 0,0 l/m 2 min 0 min 2,2 UV-I 649 W/m 10,5 km/h (2 Bft)
10.07.2014 16:52 27,2 C 26,1 C 71 % 1009,9 hPa 0,0 l/m 2 min 0 min 2,2 UV-I 666 W/m 12,6 km/h (3 Bft)
10.07.2014 16:54 27,3 C 26,1 C 71 % 1010,0 hPa 0,0 l/m 2 min 0 min 1,8 UV-I 547 W/m 8,4 km/h (2 Bft)
10.07.2014 16:56 27,2 C 26,1 C 71 % 1009,9 hPa 0,0 l/m 2 min 0 min 2,1 UV-I 547 W/m 10,5 km/h (2 Bft)
10.07.2014 16:58 26,9 C 26,1 C 70 % 1010,0 hPa 0,0 l/m 2 min 0 min 2,0 UV-I 550 W/m 12,6 km/h (3 Bft)
10.07.2014 17:00 26,9 C 26,1 C 70 % 1010,0 hPa 0,0 l/m 2 min 0 min 1,8 UV-I 429 W/m 2,1 km/h (1 Bft)
10.07.2014 17:02 26,7 C 25,6 C 70 % 1010,0 hPa 0,0 l/m 2 min 0 min 1,6 UV-I 401 W/m 12,6 km/h (3 Bft)
10.07.2014 17:04 26,4 C 25,6 C 69 % 1010,0 hPa 0,0 l/m 2 min 0 min 1,8 UV-I 559 W/m 14,6 km/h (3 Bft)
10.07.2014 17:06 26,3 C 25,6 C 70 % 1010,0 hPa 0,0 l/m 2 min 0 min 1,7 UV-I 564 W/m 14,6 km/h (3 Bft)
10.07.2014 17:08 26,2 C 25,6 C 70 % 1009,9 hPa 0,0 l/m 2 min 0 min 1,7 UV-I 564 W/m 12,6 km/h (3 Bft)
10.07.2014 17:10 26,2 C 25,6 C 70 % 1009,9 hPa 0,0 l/m 2 min 0 min 1,6 UV-I 555 W/m 10,5 km/h (2 Bft)
10.07.2014 17:12 26,4 C 25,6 C 71 % 1009,9 hPa 0,0 l/m 2 min 0 min 1,5 UV-I 534 W/m 8,4 km/h (2 Bft)
10.07.2014 17:14 26,3 C 25,6 C 71 % 1009,8 hPa 0,0 l/m 2 min 0 min 1,4 UV-I 533 W/m 10,5 km/h (2 Bft)
10.07.2014 17:16 26,4 C 25,6 C 73 % 1009,8 hPa 0,0 l/m 2 min 0 min 1,4 UV-I 534 W/m 12,6 km/h (3 Bft)
10.07.2014 17:18 26,7 C 25,6 C 72 % 1009,8 hPa 0,0 l/m 2 min 0 min 1,4 UV-I 527 W/m 8,4 km/h (2 Bft)
10.07.2014 17:20 26,9 C 25,6 C 71 % 1009,8 hPa 0,0 l/m 2 min 0 min 1,4 UV-I 504 W/m 12,6 km/h (3 Bft)
10.07.2014 17:22 26,9 C 25,6 C 71 % 1009,7 hPa 0,0 l/m 2 min 0 min 1,3 UV-I 471 W/m 14,6 km/h (3 Bft)
10.07.2014 17:24 26,9 C 25,6 C 71 % 1009,8 hPa 0,0 l/m 2 min 0 min 1,3 UV-I 483 W/m 14,6 km/h (3 Bft)
10.07.2014 17:26 26,9 C 25,6 C 71 % 1009,8 hPa 0,0 l/m 2 min 0 min 1,3 UV-I 473 W/m 14,6 km/h (3 Bft)
10.07.2014 17:28 26,9 C 25,6 C 72 % 1009,9 hPa 0,0 l/m 2 min 0 min 1,3 UV-I 461 W/m 16,7 km/h (3 Bft)
10.07.2014 17:30 27,1 C 25,6 C 71 % 1009,8 hPa 0,0 l/m 2 min 0 min 1,3 UV-I 457 W/m 2,1 km/h (1 Bft)
10.07.2014 17:32 27,0 C 25,6 C 71 % 1009,8 hPa 0,0 l/m 2 min 0 min 1,2 UV-I 371 W/m 14,6 km/h (3 Bft)
10.07.2014 17:34 26,8 C 25,0 C 71 % 1009,8 hPa 0,0 l/m 2 min 0 min 1,2 UV-I 338 W/m 14,6 km/h (3 Bft)
10.07.2014 17:36 26,8 C 25,0 C 72 % 1009,8 hPa 0,0 l/m 2 min 0 min 1,2 UV-I 385 W/m 10,5 km/h (2 Bft)
10.07.2014 17:38 26,8 C 25,0 C 72 % 1009,8 hPa 0,0 l/m 2 min 0 min 1,1 UV-I 420 W/m 8,4 km/h (2 Bft)
10.07.2014 17:40 26,7 C 25,0 C 71 % 1009,8 hPa 0,0 l/m 2 min 0 min 1,1 UV-I 359 W/m 12,6 km/h (3 Bft)
10.07.2014 17:42 26,6 C 25,0 C 73 % 1009,8 hPa 0,0 l/m 2 min 0 min 1,1 UV-I 431 W/m 12,6 km/h (3 Bft)
10.07.2014 17:44 26,4 C 25,0 C 71 % 1009,8 hPa 0,0 l/m 2 min 0 min 1,1 UV-I 418 W/m 16,7 km/h (3 Bft)
10.07.2014 17:46 26,4 C 24,4 C 73 % 1009,8 hPa 0,0 l/m 2 min 0 min 1,0 UV-I 432 W/m 12,6 km/h (3 Bft)
10.07.2014 17:48 26,4 C 24,4 C 70 % 1009,8 hPa 0,0 l/m 2 min 0 min 1,0 UV-I 446 W/m 10,5 km/h (2 Bft)
10.07.2014 17:50 26,2 C 24,4 C 72 % 1009,8 hPa 0,0 l/m 2 min 0 min 1,0 UV-I 441 W/m 2,1 km/h (1 Bft)
10.07.2014 17:52 26,2 C 24,4 C 72 % 1009,8 hPa 0,0 l/m 2 min 0 min 1,0 UV-I 448 W/m 8,4 km/h (2 Bft)
10.07.2014 17:54 26,3 C 24,4 C 74 % 1009,8 hPa 0,0 l/m 2 min 0 min 1,0 UV-I 455 W/m 8,4 km/h (2 Bft)
10.07.2014 17:56 26,4 C 24,4 C 73 % 1009,8 hPa 0,0 l/m 2 min 0 min 0,9 UV-I 432 W/m 8,4 km/h (2 Bft)
10.07.2014 17:58 26,5 C 25,0 C 72 % 1009,8 hPa 0,0 l/m 2 min 0 min 0,9 UV-I 399 W/m 10,5 km/h (2 Bft)
10.07.2014 18:00 26,6 C 24,4 C 72 % 1009,8 hPa 0,0 l/m 2 min 0 min 0,9 UV-I 390 W/m 10,5 km/h (2 Bft)
10.07.2014 18:02 26,6 C 24,4 C 73 % 1009,8 hPa 0,0 l/m 2 min 0 min 0,8 UV-I 385 W/m 14,6 km/h (3 Bft)
10.07.2014 18:06 26,7 C 25,0 C 74 % 1009,8 hPa 0,0 l/m 2 min 0 min 0,8 UV-I 464 W/m 14,6 km/h (3 Bft)
10.07.2014 18:08 26,8 C 25,0 C 74 % 1009,8 hPa 0,0 l/m 2 min 0 min 0,8 UV-I 476 W/m 14,6 km/h (3 Bft)
10.07.2014 18:10 26,8 C 25,0 C 71 % 1009,9 hPa 0,0 l/m 2 min 0 min 0,7 UV-I 466 W/m 12,6 km/h (3 Bft)
10.07.2014 18:12 26,7 C 25,0 C 72 % 1009,8 hPa 0,0 l/m 2 min 0 min 0,7 UV-I 457 W/m 10,5 km/h (2 Bft)
10.07.2014 18:14 26,6 C 25,0 C 71 % 1009,8 hPa 0,0 l/m 2 min 0 min 0,7 UV-I 448 W/m 14,6 km/h (3 Bft)
10.07.2014 18:16 26,7 C 25,0 C 72 % 1009,7 hPa 0,0 l/m 2 min 0 min 0,7 UV-I 439 W/m 12,6 km/h (3 Bft)
10.07.2014 18:18 26,6 C 25,0 C 70 % 1009,8 hPa 0,0 l/m 2 min 0 min 0,7 UV-I 420 W/m 16,7 km/h (3 Bft)
10.07.2014 18:20 26,6 C 25,0 C 70 % 1009,8 hPa 0,0 l/m 2 min 0 min 0,7 UV-I 413 W/m 16,7 km/h (3 Bft)
10.07.2014 18:22 26,6 C 25,0 C 71 % 1009,8 hPa 0,0 l/m 2 min 0 min 0,6 UV-I 397 W/m 10,5 km/h (2 Bft)
10.07.2014 18:24 26,4 C 25,0 C 71 % 1009,7 hPa 0,0 l/m 0 min 0 min 0,6 UV-I 218 W/m 10,5 km/h (2 Bft)
10.07.2014 18:26 26,4 C 24,4 C 73 % 1009,7 hPa 0,0 l/m 2 min 0 min 0,6 UV-I 253 W/m 2,1 km/h (1 Bft)
10.07.2014 18:28 26,4 C 24,4 C 74 % 1009,7 hPa 0,0 l/m 2 min 0 min 0,6 UV-I 315 W/m 8,4 km/h (2 Bft)
10.07.2014 18:30 26,4 C 24,4 C 74 % 1009,7 hPa 0,0 l/m 2 min 0 min 0,5 UV-I 308 W/m 10,5 km/h (2 Bft)
10.07.2014 18:32 26,4 C 24,4 C 73 % 1009,7 hPa 0,0 l/m 2 min 0 min 0,5 UV-I 304 W/m 14,6 km/h (3 Bft)
10.07.2014 18:34 26,4 C 24,4 C 71 % 1009,8 hPa 0,0 l/m 2 min 0 min 0,5 UV-I 322 W/m 16,7 km/h (3 Bft)
10.07.2014 18:36 26,4 C 24,4 C 72 % 1009,8 hPa 0,0 l/m 2 min 0 min 0,5 UV-I 338 W/m 8,4 km/h (2 Bft)
10.07.2014 18:38 26,3 C 24,4 C 72 % 1009,9 hPa 0,0 l/m 2 min 0 min 0,5 UV-I 320 W/m 8,4 km/h (2 Bft)
10.07.2014 18:40 26,4 C 24,4 C 72 % 1009,8 hPa 0,0 l/m 2 min 0 min 0,5 UV-I 329 W/m 8,4 km/h (2 Bft)
10.07.2014 18:42 26,4 C 23,9 C 71 % 1009,9 hPa 0,0 l/m 2 min 0 min 0,5 UV-I 329 W/m 12,6 km/h (3 Bft)
10.07.2014 18:44 26,4 C 23,9 C 72 % 1010,0 hPa 0,0 l/m 2 min 0 min 0,0 UV-I 323 W/m 12,6 km/h (3 Bft)
10.07.2014 18:46 26,5 C 23,9 C 73 % 1010,0 hPa 0,0 l/m 2 min 0 min 0,0 UV-I 315 W/m 10,5 km/h (2 Bft)
10.07.2014 18:48 26,6 C 23,9 C 73 % 1010,0 hPa 0,0 l/m 2 min 0 min 0,0 UV-I 295 W/m 14,6 km/h (3 Bft)
10.07.2014 18:50 26,5 C 23,9 C 72 % 1010,0 hPa 0,0 l/m 2 min 0 min 0,0 UV-I 297 W/m 10,5 km/h (2 Bft)
10.07.2014 18:52 26,4 C 24,4 C 71 % 1010,0 hPa 0,0 l/m 2 min 0 min 0,0 UV-I 295 W/m 12,6 km/h (3 Bft)
10.07.2014 18:54 26,4 C 24,4 C 72 % 1009,9 hPa 0,0 l/m 2 min 0 min 0,0 UV-I 287 W/m 8,4 km/h (2 Bft)
10.07.2014 18:56 26,4 C 23,9 C 73 % 1009,8 hPa 0,0 l/m 2 min 0 min 0,0 UV-I 283 W/m 16,7 km/h (3 Bft)
10.07.2014 18:58 26,3 C 23,9 C 71 % 1010,0 hPa 0,0 l/m 2 min 0 min 0,0 UV-I 271 W/m 16,7 km/h (3 Bft)
10.07.2014 19:00 26,3 C 23,9 C 72 % 1009,9 hPa 0,0 l/m 2 min 0 min 0,0 UV-I 255 W/m 8,4 km/h (2 Bft)
10.07.2014 19:02 26,3 C 23,9 C 73 % 1009,9 hPa 0,0 l/m 2 min 0 min 0,0 UV-I 250 W/m 8,4 km/h (2 Bft)
10.07.2014 19:04 26,2 C 23,3 C 73 % 1009,9 hPa 0,0 l/m 2 min 0 min 0,0 UV-I 244 W/m 18,8 km/h (3 Bft)
10.07.2014 19:06 26,2 C 23,3 C 74 % 1009,9 hPa 0,0 l/m 2 min 0 min 0,0 UV-I 243 W/m 10,5 km/h (2 Bft)
10.07.2014 19:08 26,2 C 23,3 C 72 % 1009,9 hPa 0,0 l/m 2 min 0 min 0,0 UV-I 251 W/m 12,6 km/h (3 Bft)
10.07.2014 19:10 26,2 C 23,3 C 73 % 1009,9 hPa 0,0 l/m 2 min 0 min 0,0 UV-I 234 W/m 14,6 km/h (3 Bft)
10.07.2014 19:12 26,2 C 23,3 C 73 % 1009,9 hPa 0,0 l/m 2 min 0 min 0,0 UV-I 234 W/m 14,6 km/h (3 Bft)
10.07.2014 19:14 26,2 C 23,3 C 73 % 1009,9 hPa 0,0 l/m 2 min 0 min 0,0 UV-I 223 W/m 12,6 km/h (3 Bft)
10.07.2014 19:16 26,2 C 23,3 C 73 % 1009,9 hPa 0,0 l/m 2 min 0 min 0,0 UV-I 223 W/m 8,4 km/h (2 Bft)
10.07.2014 19:18 26,2 C 23,3 C 73 % 1009,8 hPa 0,0 l/m 2 min 0 min 0,0 UV-I 227 W/m 14,6 km/h (3 Bft)
10.07.2014 19:20 26,1 C 23,3 C 73 % 1009,8 hPa 0,0 l/m 2 min 0 min 0,0 UV-I 221 W/m 12,6 km/h (3 Bft)
10.07.2014 19:22 26,1 C 23,3 C 74 % 1009,9 hPa 0,0 l/m 2 min 0 min 0,0 UV-I 216 W/m 12,6 km/h (3 Bft)
10.07.2014 19:24 26,1 C 23,3 C 73 % 1010,0 hPa 0,0 l/m 2 min 0 min 0,0 UV-I 206 W/m 14,6 km/h (3 Bft)
10.07.2014 19:26 26,1 C 23,3 C 74 % 1009,9 hPa 0,0 l/m 2 min 0 min 0,0 UV-I 202 W/m 12,6 km/h (3 Bft)
10.07.2014 19:28 26,0 C 22,8 C 74 % 1009,9 hPa 0,0 l/m 0 min 0 min 0,0 UV-I 132 W/m 12,6 km/h (3 Bft)
10.07.2014 19:30 25,9 C 22,8 C 75 % 1009,9 hPa 0,0 l/m 0 min 0 min 0,0 UV-I 69 W/m 12,6 km/h (3 Bft)
10.07.2014 19:32 25,8 C 22,8 C 75 % 1009,9 hPa 0,0 l/m 0 min 0 min 0,0 UV-I 60 W/m 10,5 km/h (2 Bft)
10.07.2014 19:34 25,7 C 22,8 C 75 % 1010,0 hPa 0,0 l/m 0 min 0 min 0,0 UV-I 60 W/m 10,5 km/h (2 Bft)
10.07.2014 19:36 25,6 C 22,2 C 76 % 1009,9 hPa 0,0 l/m 0 min 0 min 0,0 UV-I 58 W/m 10,5 km/h (2 Bft)
10.07.2014 19:38 25,6 C 22,2 C 75 % 1009,9 hPa 0,0 l/m 0 min 0 min 0,0 UV-I 54 W/m 10,5 km/h (2 Bft)
10.07.2014 19:40 25,4 C 22,2 C 76 % 1010,0 hPa 0,0 l/m 0 min 0 min 0,0 UV-I 56 W/m 12,6 km/h (3 Bft)
10.07.2014 19:42 25,3 C 22,2 C 76 % 1010,0 hPa 0,0 l/m 0 min 0 min 0,0 UV-I 60 W/m 8,4 km/h (2 Bft)
10.07.2014 19:44 25,3 C 22,2 C 76 % 1009,9 hPa 0,0 l/m 0 min 0 min 0,0 UV-I 62 W/m 2,1 km/h (1 Bft)
10.07.2014 19:46 25,2 C 22,2 C 76 % 1010,0 hPa 0,0 l/m 0 min 0 min 0,0 UV-I 62 W/m 10,5 km/h (2 Bft)
10.07.2014 19:48 25,2 C 22,2 C 76 % 1010,0 hPa 0,0 l/m 0 min 0 min 0,0 UV-I 56 W/m 8,4 km/h (2 Bft)
10.07.2014 19:50 25,2 C 22,2 C 76 % 1010,0 hPa 0,0 l/m 0 min 0 min 0,0 UV-I 56 W/m 0,0 km/h (0 Bft)
10.07.2014 19:52 25,1 C 22,2 C 77 % 1010,0 hPa 0,0 l/m 0 min 0 min 0,0 UV-I 54 W/m 2,1 km/h (1 Bft)
10.07.2014 19:54 25,1 C 22,2 C 77 % 1010,0 hPa 0,0 l/m 0 min 0 min 0,0 UV-I 54 W/m 8,4 km/h (2 Bft)
10.07.2014 19:56 25,1 C 22,2 C 78 % 1010,0 hPa 0,0 l/m 0 min 0 min 0,0 UV-I 56 W/m 6,3 km/h (2 Bft)
10.07.2014 19:58 25,0 C 21,7 C 79 % 1010,0 hPa 0,0 l/m 0 min 0 min 0,0 UV-I 56 W/m 0,0 km/h (0 Bft)
10.07.2014 20:00 24,8 C 21,7 C 79 % 1010,1 hPa 0,0 l/m 0 min 0 min 0,0 UV-I 54 W/m 0,0 km/h (0 Bft)
10.07.2014 20:02 24,8 C 21,7 C 80 % 1010,1 hPa 0,0 l/m 0 min 0 min 0,0 UV-I 54 W/m 2,1 km/h (1 Bft)
10.07.2014 20:04 24,7 C 21,7 C 79 % 1010,2 hPa 0,0 l/m 0 min 0 min 0,0 UV-I 53 W/m 2,1 km/h (1 Bft)
10.07.2014 20:06 24,7 C 21,7 C 80 % 1010,2 hPa 0,0 l/m 0 min 0 min 0,0 UV-I 49 W/m 0,0 km/h (0 Bft)
10.07.2014 20:08 24,6 C 21,7 C 80 % 1010,3 hPa 0,0 l/m 0 min 0 min 0,0 UV-I 47 W/m 0,0 km/h (0 Bft)
10.07.2014 20:10 24,5 C 21,7 C 81 % 1010,2 hPa 0,0 l/m 0 min 0 min 0,0 UV-I 46 W/m 0,0 km/h (0 Bft)
10.07.2014 20:12 24,4 C 21,7 C 81 % 1010,2 hPa 0,0 l/m 0 min 0 min 0,0 UV-I 44 W/m 2,1 km/h (1 Bft)
10.07.2014 20:14 24,4 C 21,1 C 82 % 1010,2 hPa 0,0 l/m 0 min 0 min 0,0 UV-I 44 W/m 0,0 km/h (0 Bft)
10.07.2014 20:16 24,3 C 21,1 C 82 % 1010,2 hPa 0,0 l/m 0 min 0 min 0,0 UV-I 40 W/m 6,3 km/h (2 Bft)
10.07.2014 20:18 24,2 C 21,1 C 83 % 1010,3 hPa 0,0 l/m 0 min 0 min 0,0 UV-I 39 W/m 6,3 km/h (2 Bft)
10.07.2014 20:20 24,1 C 21,1 C 82 % 1010,3 hPa 0,0 l/m 0 min 0 min 0,0 UV-I 37 W/m 6,3 km/h (2 Bft)
10.07.2014 20:22 24,1 C 21,1 C 83 % 1010,4 hPa 0,0 l/m 0 min 0 min 0,0 UV-I 33 W/m 6,3 km/h (2 Bft)
10.07.2014 20:24 24,0 C 21,1 C 83 % 1010,4 hPa 0,0 l/m 0 min 0 min 0,0 UV-I 32 W/m 4,2 km/h (1 Bft)
10.07.2014 20:26 23,9 C 21,1 C 83 % 1010,5 hPa 0,0 l/m 0 min 0 min 0,0 UV-I 30 W/m 10,5 km/h (2 Bft)
10.07.2014 20:28 23,9 C 21,1 C 84 % 1010,5 hPa 0,0 l/m 0 min 0 min 0,0 UV-I 25 W/m 14,6 km/h (3 Bft)
10.07.2014 20:30 23,9 C 21,1 C 85 % 1010,6 hPa 0,0 l/m 0 min 0 min 0,0 UV-I 23 W/m 18,8 km/h (3 Bft)
10.07.2014 20:32 23,9 C 21,1 C 86 % 1010,6 hPa 0,0 l/m 0 min 0 min 0,0 UV-I 23 W/m 16,7 km/h (3 Bft)
10.07.2014 20:34 23,9 C 21,1 C 86 % 1010,6 hPa 0,0 l/m 0 min 0 min 0,0 UV-I 25 W/m 12,6 km/h (3 Bft)
10.07.2014 20:36 23,9 C 21,7 C 86 % 1010,7 hPa 0,0 l/m 0 min 0 min 0,0 UV-I 26 W/m 12,6 km/h (3 Bft)
10.07.2014 20:38 23,8 C 21,7 C 87 % 1010,7 hPa 0,0 l/m 0 min 0 min 0,0 UV-I 25 W/m 14,6 km/h (3 Bft)
10.07.2014 20:40 23,8 C 21,1 C 87 % 1010,7 hPa 0,0 l/m 0 min 0 min 0,0 UV-I 18 W/m 16,7 km/h (3 Bft)
10.07.2014 20:42 23,8 C 21,1 C 87 % 1010,7 hPa 0,0 l/m 0 min 0 min 0,0 UV-I 16 W/m 16,7 km/h (3 Bft)
10.07.2014 20:44 23,7 C 21,1 C 88 % 1010,7 hPa 0,0 l/m 0 min 0 min 0,0 UV-I 14 W/m 8,4 km/h (2 Bft)
10.07.2014 20:46 23,7 C 21,1 C 88 % 1010,7 hPa 0,0 l/m 0 min 0 min 0,0 UV-I 14 W/m 10,5 km/h (2 Bft)
10.07.2014 20:48 23,6 C 21,1 C 88 % 1010,7 hPa 0,0 l/m 0 min 0 min 0,0 UV-I 14 W/m 25,1 km/h (4 Bft)
10.07.2014 20:50 23,5 C 21,1 C 88 % 1010,6 hPa 0,0 l/m 0 min 0 min 0,0 UV-I 16 W/m 20,9 km/h (4 Bft)
10.07.2014 20:52 23,4 C 21,1 C 88 % 1010,6 hPa 0,0 l/m 0 min 0 min 0,0 UV-I 18 W/m 18,8 km/h (3 Bft)
10.07.2014 20:54 23,3 C 21,1 C 88 % 1010,6 hPa 0,0 l/m 0 min 0 min 0,0 UV-I 18 W/m 16,7 km/h (3 Bft)
10.07.2014 20:56 23,2 C 21,1 C 88 % 1010,6 hPa 0,0 l/m 0 min 0 min 0,0 UV-I 18 W/m 18,8 km/h (3 Bft)
10.07.2014 20:58 23,2 C 21,1 C 88 % 1010,6 hPa 0,0 l/m 0 min 0 min 0,0 UV-I 19 W/m 14,6 km/h (3 Bft)
10.07.2014 21:00 23,1 C 21,1 C 89 % 1010,6 hPa 0,0 l/m 0 min 0 min 0,0 UV-I 18 W/m 16,7 km/h (3 Bft)
10.07.2014 21:02 23,0 C 21,1 C 89 % 1010,6 hPa 0,0 l/m 0 min 0 min 0,0 UV-I 18 W/m 14,6 km/h (3 Bft)
10.07.2014 21:04 22,9 C 21,1 C 89 % 1010,6 hPa 0,0 l/m 0 min 0 min 0,0 UV-I 18 W/m 20,9 km/h (4 Bft)
10.07.2014 21:06 22,9 C 20,6 C 89 % 1010,6 hPa 0,0 l/m 0 min 0 min 0,0 UV-I 18 W/m 16,7 km/h (3 Bft)
10.07.2014 21:08 22,8 C 20,6 C 89 % 1010,6 hPa 0,0 l/m 0 min 0 min 0,0 UV-I 16 W/m 18,8 km/h (3 Bft)
10.07.2014 21:10 22,7 C 20,6 C 90 % 1010,6 hPa 0,0 l/m 0 min 0 min 0,0 UV-I 14 W/m 23,0 km/h (4 Bft)
10.07.2014 21:12 22,7 C 20,6 C 90 % 1010,6 hPa 0,0 l/m 0 min 0 min 0,0 UV-I 12 W/m 23,0 km/h (4 Bft)
10.07.2014 21:14 22,7 C 20,6 C 90 % 1010,6 hPa 0,0 l/m 0 min 0 min 0,0 UV-I 12 W/m 23,0 km/h (4 Bft)
10.07.2014 21:16 22,6 C 20,6 C 90 % 1010,6 hPa 0,0 l/m 0 min 0 min 0,0 UV-I 12 W/m 29,3 km/h (5 Bft)
10.07.2014 21:18 22,6 C 20,6 C 90 % 1010,6 hPa 0,0 l/m 0 min 0 min 0,0 UV-I 12 W/m 18,8 km/h (3 Bft)
10.07.2014 21:20 22,5 C 20,6 C 90 % 1010,5 hPa 0,0 l/m 0 min 0 min 0,0 UV-I 11 W/m 18,8 km/h (3 Bft)
10.07.2014 21:22 22,5 C 20,6 C 90 % 1010,5 hPa 0,0 l/m 0 min 0 min 0,0 UV-I 11 W/m 18,8 km/h (3 Bft)
10.07.2014 21:24 22,4 C 20,6 C 90 % 1010,6 hPa 0,0 l/m 0 min 0 min 0,0 UV-I 9 W/m 16,7 km/h (3 Bft)
10.07.2014 21:26 22,4 C 20,6 C 90 % 1010,6 hPa 0,0 l/m 0 min 0 min 0,0 UV-I 9 W/m 16,7 km/h (3 Bft)
10.07.2014 21:28 22,4 C 20,6 C 90 % 1010,6 hPa 0,0 l/m 0 min 0 min 0,0 UV-I 7 W/m 20,9 km/h (4 Bft)
10.07.2014 21:30 22,3 C 20,6 C 90 % 1010,6 hPa 0,0 l/m 0 min 0 min 0,0 UV-I 7 W/m 12,6 km/h (3 Bft)
10.07.2014 21:32 22,3 C 20,6 C 90 % 1010,6 hPa 0,0 l/m 0 min 0 min 0,0 UV-I 5 W/m 12,6 km/h (3 Bft)
10.07.2014 21:34 22,2 C 20,0 C 90 % 1010,7 hPa 0,0 l/m 0 min 0 min 0,0 UV-I 5 W/m 8,4 km/h (2 Bft)
10.07.2014 21:36 22,2 C 20,0 C 91 % 1010,7 hPa 0,0 l/m 0 min 0 min 0,0 UV-I 5 W/m 14,6 km/h (3 Bft)
10.07.2014 21:38 22,1 C 20,0 C 91 % 1010,9 hPa 0,0 l/m 0 min 0 min 0,0 UV-I 0 W/m 16,7 km/h (3 Bft)
10.07.2014 21:40 22,1 C 20,0 C 91 % 1011,0 hPa 0,0 l/m 0 min 0 min 0,0 UV-I 0 W/m 14,6 km/h (3 Bft)
10.07.2014 21:42 22,0 C 20,0 C 91 % 1011,0 hPa 0,0 l/m 0 min 0 min 0,0 UV-I 0 W/m 20,9 km/h (4 Bft)
10.07.2014 21:44 21,9 C 20,0 C 91 % 1011,2 hPa 0,0 l/m 0 min 0 min 0,0 UV-I 0 W/m 12,6 km/h (3 Bft)
10.07.2014 21:46 21,9 C 20,0 C 91 % 1011,3 hPa 0,0 l/m 0 min 0 min 0,0 UV-I 0 W/m 14,6 km/h (3 Bft)
10.07.2014 21:48 21,8 C 20,0 C 92 % 1011,4 hPa 0,0 l/m 0 min 0 min 0,0 UV-I 0 W/m 10,5 km/h (2 Bft)
10.07.2014 21:50 21,8 C 20,0 C 92 % 1011,4 hPa 0,0 l/m 0 min 0 min 0,0 UV-I 0 W/m 14,6 km/h (3 Bft)
10.07.2014 21:52 21,7 C 20,0 C 92 % 1011,4 hPa 0,0 l/m 0 min 0 min 0,0 UV-I 0 W/m 23,0 km/h (4 Bft)
10.07.2014 21:54 21,7 C 20,0 C 92 % 1011,4 hPa 0,0 l/m 0 min 0 min 0,0 UV-I 0 W/m 14,6 km/h (3 Bft)
10.07.2014 21:56 21,7 C 20,0 C 92 % 1011,5 hPa 0,0 l/m 0 min 0 min 0,0 UV-I 0 W/m 20,9 km/h (4 Bft)
10.07.2014 21:58 21,7 C 20,0 C 92 % 1011,5 hPa 0,0 l/m 0 min 0 min 0,0 UV-I 0 W/m 14,6 km/h (3 Bft)
10.07.2014 22:00 21,6 C 20,0 C 92 % 1011,5 hPa 0,0 l/m 0 min 0 min 0,0 UV-I 0 W/m 16,7 km/h (3 Bft)
10.07.2014 22:02 21,6 C 20,0 C 92 % 1011,6 hPa 0,0 l/m 0 min 0 min 0,0 UV-I 0 W/m 16,7 km/h (3 Bft)
10.07.2014 22:04 21,5 C 20,0 C 92 % 1011,6 hPa 0,0 l/m 0 min 0 min 0,0 UV-I 0 W/m 20,9 km/h (4 Bft)
10.07.2014 22:06 21,4 C 20,0 C 92 % 1011,4 hPa 0,0 l/m 0 min 0 min 0,0 UV-I 0 W/m 12,6 km/h (3 Bft)
10.07.2014 22:08 21,4 C 19,4 C 92 % 1011,4 hPa 0,0 l/m 0 min 0 min 0,0 UV-I 0 W/m 12,6 km/h (3 Bft)
10.07.2014 22:10 21,3 C 19,4 C 93 % 1011,4 hPa 0,0 l/m 0 min 0 min 0,0 UV-I 0 W/m 18,8 km/h (3 Bft)
10.07.2014 22:12 21,3 C 19,4 C 92 % 1011,4 hPa 0,0 l/m 0 min 0 min 0,0 UV-I 0 W/m 16,7 km/h (3 Bft)
10.07.2014 22:14 21,2 C 19,4 C 92 % 1011,4 hPa 0,0 l/m 0 min 0 min 0,0 UV-I 0 W/m 16,7 km/h (3 Bft)
10.07.2014 22:16 21,1 C 19,4 C 92 % 1011,4 hPa 0,0 l/m 0 min 0 min 0,0 UV-I 0 W/m 18,8 km/h (3 Bft)
10.07.2014 22:18 21,1 C 19,4 C 93 % 1011,3 hPa 0,0 l/m 0 min 0 min 0,0 UV-I 0 W/m 14,6 km/h (3 Bft)
10.07.2014 22:20 21,0 C 19,4 C 93 % 1011,3 hPa 0,0 l/m 0 min 0 min 0,0 UV-I 0 W/m 16,7 km/h (3 Bft)
10.07.2014 22:22 21,0 C 19,4 C 93 % 1011,3 hPa 0,0 l/m 0 min 0 min 0,0 UV-I 0 W/m 25,1 km/h (4 Bft)
10.07.2014 22:24 20,9 C 19,4 C 93 % 1011,4 hPa 0,0 l/m 0 min 0 min 0,0 UV-I 0 W/m 16,7 km/h (3 Bft)
10.07.2014 22:26 20,9 C 19,4 C 93 % 1011,4 hPa 0,0 l/m 0 min 0 min 0,0 UV-I 0 W/m 20,9 km/h (4 Bft)
10.07.2014 22:28 20,9 C 19,4 C 93 % 1011,5 hPa 0,0 l/m 0 min 0 min 0,0 UV-I 0 W/m 20,9 km/h (4 Bft)
10.07.2014 22:30 20,8 C 19,4 C 93 % 1011,7 hPa 0,0 l/m 0 min 0 min 0,0 UV-I 0 W/m 10,5 km/h (2 Bft)
10.07.2014 22:32 20,8 C 19,4 C 93 % 1011,9 hPa 0,0 l/m 0 min 0 min 0,0 UV-I 0 W/m 10,5 km/h (2 Bft)
10.07.2014 22:34 20,8 C 18,9 C 93 % 1011,9 hPa 0,0 l/m 0 min 0 min 0,0 UV-I 0 W/m 10,5 km/h (2 Bft)
10.07.2014 22:36 20,7 C 19,4 C 94 % 1012,1 hPa 0,0 l/m 0 min 0 min 0,0 UV-I 0 W/m 12,6 km/h (3 Bft)
10.07.2014 22:38 20,7 C 19,4 C 94 % 1012,3 hPa 0,0 l/m 0 min 0 min 0,0 UV-I 0 W/m 16,7 km/h (3 Bft)
10.07.2014 22:40 20,7 C 19,4 C 94 % 1012,5 hPa 0,0 l/m 0 min 2 min 0,0 UV-I 0 W/m 18,8 km/h (3 Bft)
10.07.2014 22:42 20,7 C 18,9 C 94 % 1012,4 hPa 0,0 l/m 0 min 2 min 0,0 UV-I 0 W/m 23,0 km/h (4 Bft)
10.07.2014 22:44 20,7 C 18,9 C 94 % 1012,4 hPa 0,2 l/m 0 min 2 min 0,0 UV-I 0 W/m 16,7 km/h (3 Bft)
10.07.2014 22:46 20,6 C 18,3 C 94 % 1012,4 hPa 0,0 l/m 0 min 2 min 0,0 UV-I 0 W/m 18,8 km/h (3 Bft)
10.07.2014 22:48 20,4 C 18,3 C 94 % 1012,3 hPa 0,2 l/m 0 min 2 min 0,0 UV-I 0 W/m 18,8 km/h (3 Bft)
10.07.2014 22:50 20,2 C 18,3 C 94 % 1012,0 hPa 0,0 l/m 0 min 2 min 0,0 UV-I 0 W/m 10,5 km/h (2 Bft)
10.07.2014 22:52 20,0 C 17,8 C 94 % 1012,0 hPa 0,0 l/m 0 min 2 min 0,0 UV-I 0 W/m 20,9 km/h (4 Bft)
10.07.2014 22:54 19,7 C 17,8 C 94 % 1012,0 hPa 0,2 l/m 0 min 2 min 0,0 UV-I 0 W/m 16,7 km/h (3 Bft)
10.07.2014 22:56 19,7 C 17,8 C 94 % 1012,0 hPa 0,0 l/m 0 min 2 min 0,0 UV-I 0 W/m 16,7 km/h (3 Bft)
10.07.2014 22:58 19,5 C 17,8 C 94 % 1012,0 hPa 0,0 l/m 0 min 2 min 0,0 UV-I 0 W/m 10,5 km/h (2 Bft)
10.07.2014 23:00 19,4 C 17,8 C 94 % 1012,0 hPa 0,0 l/m 0 min 2 min 0,0 UV-I 0 W/m 14,6 km/h (3 Bft)
10.07.2014 23:02 19,3 C 17,8 C 94 % 1012,0 hPa 0,0 l/m 0 min 2 min 0,0 UV-I 0 W/m 18,8 km/h (3 Bft)
10.07.2014 23:04 19,2 C 17,2 C 95 % 1011,9 hPa 0,0 l/m 0 min 2 min 0,0 UV-I 0 W/m 25,1 km/h (4 Bft)
10.07.2014 23:06 19,1 C 17,2 C 95 % 1011,9 hPa 0,0 l/m 0 min 2 min 0,0 UV-I 0 W/m 14,6 km/h (3 Bft)
10.07.2014 23:08 18,9 C 17,2 C 94 % 1011,9 hPa 0,0 l/m 0 min 2 min 0,0 UV-I 0 W/m 16,7 km/h (3 Bft)
10.07.2014 23:10 18,7 C 16,7 C 94 % 1011,9 hPa 0,0 l/m 0 min 2 min 0,0 UV-I 0 W/m 18,8 km/h (3 Bft)
10.07.2014 23:12 18,5 C 16,7 C 94 % 1011,9 hPa 0,0 l/m 0 min 0 min 0,0 UV-I 0 W/m 16,7 km/h (3 Bft)
10.07.2014 23:14 18,4 C 16,7 C 93 % 1011,7 hPa 0,0 l/m 0 min 0 min 0,0 UV-I 0 W/m 14,6 km/h (3 Bft)
10.07.2014 23:16 18,3 C 16,7 C 93 % 1011,8 hPa 0,0 l/m 0 min 0 min 0,0 UV-I 0 W/m 10,5 km/h (2 Bft)
10.07.2014 23:18 18,3 C 16,7 C 93 % 1011,9 hPa 0,0 l/m 0 min 0 min 0,0 UV-I 0 W/m 10,5 km/h (2 Bft)
10.07.2014 23:20 18,3 C 16,7 C 93 % 1012,0 hPa 0,0 l/m 0 min 0 min 0,0 UV-I 0 W/m 0,0 km/h (0 Bft)
10.07.2014 23:22 18,3 C 16,7 C 93 % 1012,0 hPa 0,0 l/m 0 min 0 min 0,0 UV-I 0 W/m 10,5 km/h (2 Bft)
10.07.2014 23:24 18,3 C 16,7 C 93 % 1012,1 hPa 0,0 l/m 0 min 0 min 0,0 UV-I 0 W/m 2,1 km/h (1 Bft)
10.07.2014 23:26 18,4 C 16,7 C 93 % 1012,3 hPa 0,0 l/m 0 min 0 min 0,0 UV-I 0 W/m 0,0 km/h (0 Bft)
10.07.2014 23:28 18,4 C 16,7 C 93 % 1012,4 hPa 0,0 l/m 0 min 0 min 0,0 UV-I 0 W/m 8,4 km/h (2 Bft)
10.07.2014 23:30 18,4 C 16,7 C 94 % 1012,8 hPa 0,0 l/m 0 min 0 min 0,0 UV-I 0 W/m 14,6 km/h (3 Bft)
10.07.2014 23:32 18,4 C 16,7 C 94 % 1013,0 hPa 0,0 l/m 0 min 0 min 0,0 UV-I 0 W/m 23,0 km/h (4 Bft)
10.07.2014 23:34 18,3 C 16,7 C 94 % 1013,0 hPa 0,0 l/m 0 min 0 min 0,0 UV-I 0 W/m 16,7 km/h (3 Bft)
10.07.2014 23:36 18,3 C 16,7 C 94 % 1012,8 hPa 0,0 l/m 0 min 0 min 0,0 UV-I 0 W/m 4,2 km/h (1 Bft)
10.07.2014 23:38 18,3 C 16,7 C 94 % 1012,8 hPa 0,2 l/m 0 min 2 min 0,0 UV-I 0 W/m 6,3 km/h (2 Bft)
10.07.2014 23:40 18,3 C 16,1 C 94 % 1012,8 hPa 0,8 l/m 0 min 2 min 0,0 UV-I 0 W/m 12,6 km/h (3 Bft)
10.07.2014 23:42 18,2 C 16,1 C 94 % 1012,6 hPa 1,0 l/m 0 min 2 min 0,0 UV-I 0 W/m 10,5 km/h (2 Bft)
10.07.2014 23:44 18,1 C 16,1 C 94 % 1012,4 hPa 1,0 l/m 0 min 2 min 0,0 UV-I 0 W/m 10,5 km/h (2 Bft)
10.07.2014 23:46 17,9 C 16,1 C 94 % 1012,1 hPa 1,0 l/m 0 min 2 min 0,0 UV-I 0 W/m 14,6 km/h (3 Bft)
10.07.2014 23:48 17,8 C 16,1 C 94 % 1012,1 hPa 0,2 l/m 0 min 2 min 0,0 UV-I 0 W/m 10,5 km/h (2 Bft)
10.07.2014 23:50 17,7 C 16,1 C 94 % 1012,2 hPa 0,0 l/m 0 min 2 min 0,0 UV-I 0 W/m 0,0 km/h (0 Bft)
10.07.2014 23:52 17,7 C 16,1 C 94 % 1012,3 hPa 0,2 l/m 0 min 2 min 0,0 UV-I 0 W/m 2,1 km/h (1 Bft)
10.07.2014 23:54 17,7 C 16,1 C 95 % 1012,3 hPa 0,0 l/m 0 min 2 min 0,0 UV-I 0 W/m 0,0 km/h (0 Bft)
10.07.2014 23:56 17,6 C 16,1 C 95 % 1012,3 hPa 0,0 l/m 0 min 2 min 0,0 UV-I 0 W/m 0,0 km/h (0 Bft)
10.07.2014 23:58 17,7 C 16,1 C 95 % 1012,2 hPa 0,0 l/m 0 min 2 min 0,0 UV-I 0 W/m 4,2 km/h (1 Bft)
_ Min-Zeit 05:20 03:42 17:04 00:00 - - - - - 00:06
Minimum _ 16,6 C 15,6 C 69 % 1005,4 hPa - - - - - 0,0 km/h (0 Bft)
_ Max-Zeit 16:54 16:06 00:00 23:32 23:42 09:46 00:30 13:58 12:44 21:16
Maximum _ 27,3 C 28,3 C 100 % 1013,0 hPa 1,0 l/m 2 min 2 min 5,2 UV-I 937 W/m 29,3 km/h
NW (5 Bft)
Durchschnitt _ 21,0 C 19,8 C 91 % 1008,9 hPa #5,0 l/m #5:39 h #1:14 h 2,3 UV-I 281 W/m 7,3 km/h (2 Bft)
© 2014 W. Hausmann